<?xml version="1.0" encoding="UTF-8" standalone="yes"?>
<gpx
 xmlns="http://www.topografix.com/GPX/1/1"
 creator="OziExplorer Version 3956f - http://www.oziexplorer.com"
 version="1.1"
 xmlns:xsi="http://www.w3.org/2001/XMLSchema-instance"
 xsi:schemaLocation="http://www.topografix.com/GPX/1/1 http://www.topografix.com/GPX/1/1/gpx.xsd">
<metadata>
 <time>2017-06-20T04:16:25Z</time>
 <bounds minlat="0.000000" minlon="0.000000" maxlat="31.758277" maxlon="35.177428"/>
</metadata>
<trk>
 <name>refaim-zoo-Kennedi</name>
 <desc>refaim-zoo-Kennedy</desc>
<trkseg>
<trkpt lat="31.7582650" lon="35.0896370">
<ele>424.403534</ele>
<time>2015-06-26T09:58:38.001Z</time>
</trkpt>
<trkpt lat="31.7581950" lon="35.0896840">
<ele>425.409332</ele>
<time>2015-06-26T09:58:30.000Z</time>
</trkpt>
<trkpt lat="31.7581640" lon="35.0896570">
<ele>425.287445</ele>
<time>2015-06-26T09:58:28.004Z</time>
</trkpt>
<trkpt lat="31.7581410" lon="35.0892290">
<ele>424.708313</ele>
<time>2015-06-26T09:56:47.003Z</time>
</trkpt>
<trkpt lat="31.7580650" lon="35.0892610">
<ele>425.287445</ele>
<time>2015-06-26T09:56:42.000Z</time>
</trkpt>
<trkpt lat="31.7579360" lon="35.0892450">
<ele>426.293274</ele>
<time>2015-06-26T09:56:38.000Z</time>
</trkpt>
<trkpt lat="31.7578820" lon="35.0892910">
<ele>426.689514</ele>
<time>2015-06-26T09:56:36.997Z</time>
</trkpt>
<trkpt lat="31.7577700" lon="35.0892090">
<ele>428.091614</ele>
<time>2015-06-26T09:56:35.002Z</time>
</trkpt>
<trkpt lat="31.7575620" lon="35.0892340">
<ele>430.286133</ele>
<time>2015-06-26T09:56:32.004Z</time>
</trkpt>
<trkpt lat="31.7573770" lon="35.0893150">
<ele>431.200531</ele>
<time>2015-06-26T09:56:28.997Z</time>
</trkpt>
<trkpt lat="31.7572510" lon="35.0894580">
<ele>429.798462</ele>
<time>2015-06-26T09:56:25.999Z</time>
</trkpt>
<trkpt lat="31.7570540" lon="35.0895130">
<ele>429.798462</ele>
<time>2015-06-26T09:56:23.001Z</time>
</trkpt>
<trkpt lat="31.7567800" lon="35.0895130">
<ele>431.993042</ele>
<time>2015-06-26T09:56:19.000Z</time>
</trkpt>
<trkpt lat="31.7565430" lon="35.0894180">
<ele>435.711609</ele>
<time>2015-06-26T09:56:15.000Z</time>
</trkpt>
<trkpt lat="31.7564890" lon="35.0893630">
<ele>437.205139</ele>
<time>2015-06-26T09:56:13.998Z</time>
</trkpt>
<trkpt lat="31.7564610" lon="35.0892680">
<ele>439.186340</ele>
<time>2015-06-26T09:56:11.000Z</time>
</trkpt>
<trkpt lat="31.7561640" lon="35.0889450">
<ele>446.013855</ele>
<time>2015-06-26T09:56:04.001Z</time>
</trkpt>
<trkpt lat="31.7557880" lon="35.0889620">
<ele>443.910736</ele>
<time>2015-06-26T09:55:57.003Z</time>
</trkpt>
<trkpt lat="31.7556480" lon="35.0889110">
<ele>443.301117</ele>
<time>2015-06-26T09:55:53.996Z</time>
</trkpt>
<trkpt lat="31.7556150" lon="35.0889550">
<ele>442.996338</ele>
<time>2015-06-26T09:55:53.003Z</time>
</trkpt>
<trkpt lat="31.7554530" lon="35.0889430">
<ele>442.112396</ele>
<time>2015-06-26T09:55:49.996Z</time>
</trkpt>
<trkpt lat="31.7554090" lon="35.0889970">
<ele>442.295258</ele>
<time>2015-06-26T09:55:49.002Z</time>
</trkpt>
<trkpt lat="31.7553520" lon="35.0889270">
<ele>442.691528</ele>
<time>2015-06-26T09:55:48.000Z</time>
</trkpt>
<trkpt lat="31.7551150" lon="35.0888040">
<ele>443.392548</ele>
<time>2015-06-26T09:55:42.997Z</time>
</trkpt>
<trkpt lat="31.7549860" lon="35.0888160">
<ele>444.611755</ele>
<time>2015-06-26T09:55:41.002Z</time>
</trkpt>
<trkpt lat="31.7549010" lon="35.0887660">
<ele>443.910736</ele>
<time>2015-06-26T09:55:39.999Z</time>
</trkpt>
<trkpt lat="31.7548320" lon="35.0886650">
<ele>444.306946</ele>
<time>2015-06-26T09:55:38.997Z</time>
</trkpt>
<trkpt lat="31.7547280" lon="35.0886270">
<ele>444.398407</ele>
<time>2015-06-26T09:55:37.001Z</time>
</trkpt>
<trkpt lat="31.7543710" lon="35.0886240">
<ele>454.212952</ele>
<time>2015-06-26T09:55:27.998Z</time>
</trkpt>
<trkpt lat="31.7543170" lon="35.0885500">
<ele>455.706482</ele>
<time>2015-06-26T09:55:26.003Z</time>
</trkpt>
<trkpt lat="31.7543390" lon="35.0884860">
<ele>453.908142</ele>
<time>2015-06-26T09:55:25.000Z</time>
</trkpt>
<trkpt lat="31.7541680" lon="35.0882230">
<ele>456.194153</ele>
<time>2015-06-26T09:55:19.998Z</time>
</trkpt>
<trkpt lat="31.7539790" lon="35.0877730">
<ele>453.786255</ele>
<time>2015-06-26T09:55:12.999Z</time>
</trkpt>
<trkpt lat="31.7539100" lon="35.0877120">
<ele>454.395844</ele>
<time>2015-06-26T09:55:11.997Z</time>
</trkpt>
<trkpt lat="31.7539280" lon="35.0876650">
<ele>453.694794</ele>
<time>2015-06-26T09:55:11.004Z</time>
</trkpt>
<trkpt lat="31.7538590" lon="35.0874070">
<ele>451.896484</ele>
<time>2015-06-26T09:55:07.003Z</time>
</trkpt>
<trkpt lat="31.7537810" lon="35.0872460">
<ele>450.311523</ele>
<time>2015-06-26T09:55:03.996Z</time>
</trkpt>
<trkpt lat="31.7536960" lon="35.0871910">
<ele>451.713593</ele>
<time>2015-06-26T09:55:02.001Z</time>
</trkpt>
<trkpt lat="31.7537920" lon="35.0871290">
<ele>448.696075</ele>
<time>2015-06-26T09:55:00.998Z</time>
</trkpt>
<trkpt lat="31.7537930" lon="35.0870230">
<ele>447.690247</ele>
<time>2015-06-26T09:54:59.996Z</time>
</trkpt>
<trkpt lat="31.7537000" lon="35.0866350">
<ele>445.312805</ele>
<time>2015-06-26T09:54:52.998Z</time>
</trkpt>
<trkpt lat="31.7536740" lon="35.0866500">
<ele>446.013855</ele>
<time>2015-06-26T09:54:52.004Z</time>
</trkpt>
<trkpt lat="31.7536990" lon="35.0865330">
<ele>444.185059</ele>
<time>2015-06-26T09:54:51.002Z</time>
</trkpt>
<trkpt lat="31.7536770" lon="35.0864180">
<ele>443.301117</ele>
<time>2015-06-26T09:54:50.000Z</time>
</trkpt>
<trkpt lat="31.7534340" lon="35.0858210">
<ele>451.500244</ele>
<time>2015-06-26T09:54:41.999Z</time>
</trkpt>
<trkpt lat="31.7532440" lon="35.0855830">
<ele>453.999603</ele>
<time>2015-06-26T09:54:37.999Z</time>
</trkpt>
<trkpt lat="31.7530670" lon="35.0855270">
<ele>452.414642</ele>
<time>2015-06-26T09:54:35.001Z</time>
</trkpt>
<trkpt lat="31.7529670" lon="35.0855800">
<ele>450.585846</ele>
<time>2015-06-26T09:54:32.996Z</time>
</trkpt>
<trkpt lat="31.7518470" lon="35.0855760">
<ele>449.305664</ele>
<time>2015-06-26T09:54:17.004Z</time>
</trkpt>
<trkpt lat="31.7517340" lon="35.0855000">
<ele>448.299866</ele>
<time>2015-06-26T09:54:14.999Z</time>
</trkpt>
<trkpt lat="31.7513920" lon="35.0854220">
<ele>445.891937</ele>
<time>2015-06-26T09:54:05.996Z</time>
</trkpt>
<trkpt lat="31.7513180" lon="35.0854320">
<ele>445.495667</ele>
<time>2015-06-26T09:54:02.998Z</time>
</trkpt>
<trkpt lat="31.7512290" lon="35.0855200">
<ele>445.891937</ele>
<time>2015-06-26T09:54:00.000Z</time>
</trkpt>
<trkpt lat="31.7509700" lon="35.0855420">
<ele>447.812134</ele>
<time>2015-06-26T09:53:54.997Z</time>
</trkpt>
<trkpt lat="31.7507560" lon="35.0855050">
<ele>449.397125</ele>
<time>2015-06-26T09:53:51.999Z</time>
</trkpt>
<trkpt lat="31.7505250" lon="35.0855770">
<ele>450.585846</ele>
<time>2015-06-26T09:53:49.001Z</time>
</trkpt>
<trkpt lat="31.7500370" lon="35.0858920">
<ele>451.286865</ele>
<time>2015-06-26T09:53:42.003Z</time>
</trkpt>
<trkpt lat="31.7498420" lon="35.0860980">
<ele>448.696075</ele>
<time>2015-06-26T09:53:35.998Z</time>
</trkpt>
<trkpt lat="31.7497440" lon="35.0863410">
<ele>445.404266</ele>
<time>2015-06-26T09:53:29.000Z</time>
</trkpt>
<trkpt lat="31.7497390" lon="35.0865360">
<ele>445.007996</ele>
<time>2015-06-26T09:53:23.997Z</time>
</trkpt>
<trkpt lat="31.7498390" lon="35.0868410">
<ele>444.611755</ele>
<time>2015-06-26T09:53:15.996Z</time>
</trkpt>
<trkpt lat="31.7499330" lon="35.0869650">
<ele>444.703186</ele>
<time>2015-06-26T09:53:12.998Z</time>
</trkpt>
<trkpt lat="31.7501050" lon="35.0873470">
<ele>445.495667</ele>
<time>2015-06-26T09:53:06.000Z</time>
</trkpt>
<trkpt lat="31.7501660" lon="35.0875920">
<ele>445.404266</ele>
<time>2015-06-26T09:53:00.997Z</time>
</trkpt>
<trkpt lat="31.7503760" lon="35.0878370">
<ele>443.697357</ele>
<time>2015-06-26T09:52:55.001Z</time>
</trkpt>
<trkpt lat="31.7505440" lon="35.0881950">
<ele>445.312805</ele>
<time>2015-06-26T09:52:48.003Z</time>
</trkpt>
<trkpt lat="31.7507760" lon="35.0884830">
<ele>448.391266</ele>
<time>2015-06-26T09:52:40.996Z</time>
</trkpt>
<trkpt lat="31.7508300" lon="35.0889400">
<ele>448.391266</ele>
<time>2015-06-26T09:52:32.002Z</time>
</trkpt>
<trkpt lat="31.7508040" lon="35.0889720">
<ele>448.208405</ele>
<time>2015-06-26T09:52:30.999Z</time>
</trkpt>
<trkpt lat="31.7507990" lon="35.0891370">
<ele>448.604645</ele>
<time>2015-06-26T09:52:28.001Z</time>
</trkpt>
<trkpt lat="31.7507200" lon="35.0894960">
<ele>448.909454</ele>
<time>2015-06-26T09:52:21.996Z</time>
</trkpt>
<trkpt lat="31.7507360" lon="35.0895590">
<ele>449.214264</ele>
<time>2015-06-26T09:52:20.001Z</time>
</trkpt>
<trkpt lat="31.7504940" lon="35.0901320">
<ele>451.286865</ele>
<time>2015-06-26T09:52:08.000Z</time>
</trkpt>
<trkpt lat="31.7504430" lon="35.0903640">
<ele>452.688934</ele>
<time>2015-06-26T09:52:03.999Z</time>
</trkpt>
<trkpt lat="31.7504750" lon="35.0908380">
<ele>456.498932</ele>
<time>2015-06-26T09:51:55.999Z</time>
</trkpt>
<trkpt lat="31.7506250" lon="35.0916350">
<ele>461.101440</ele>
<time>2015-06-26T09:51:43.998Z</time>
</trkpt>
<trkpt lat="31.7509630" lon="35.0921250">
<ele>461.101440</ele>
<time>2015-06-26T09:51:32.999Z</time>
</trkpt>
<trkpt lat="31.7509680" lon="35.0922170">
<ele>461.010010</ele>
<time>2015-06-26T09:51:31.003Z</time>
</trkpt>
<trkpt lat="31.7509210" lon="35.0928730">
<ele>461.192871</ele>
<time>2015-06-26T09:51:19.996Z</time>
</trkpt>
<trkpt lat="31.7507990" lon="35.0931130">
<ele>462.899750</ele>
<time>2015-06-26T09:51:15.002Z</time>
</trkpt>
<trkpt lat="31.7507480" lon="35.0930920">
<ele>462.686401</ele>
<time>2015-06-26T09:51:14.000Z</time>
</trkpt>
<trkpt lat="31.7506490" lon="35.0931070">
<ele>462.686401</ele>
<time>2015-06-26T09:51:12.004Z</time>
</trkpt>
<trkpt lat="31.7505550" lon="35.0931940">
<ele>462.686401</ele>
<time>2015-06-26T09:51:09.999Z</time>
</trkpt>
<trkpt lat="31.7503090" lon="35.0933040">
<ele>463.600800</ele>
<time>2015-06-26T09:51:04.997Z</time>
</trkpt>
<trkpt lat="31.7500040" lon="35.0933410">
<ele>467.593658</ele>
<time>2015-06-26T09:51:00.003Z</time>
</trkpt>
<trkpt lat="31.7499570" lon="35.0933190">
<ele>468.508087</ele>
<time>2015-06-26T09:50:59.001Z</time>
</trkpt>
<trkpt lat="31.7496450" lon="35.0934070">
<ele>471.586548</ele>
<time>2015-06-26T09:50:55.000Z</time>
</trkpt>
<trkpt lat="31.7496090" lon="35.0933530">
<ele>472.805756</ele>
<time>2015-06-26T09:50:53.998Z</time>
</trkpt>
<trkpt lat="31.7495360" lon="35.0933680">
<ele>473.201996</ele>
<time>2015-06-26T09:50:52.996Z</time>
</trkpt>
<trkpt lat="31.7493390" lon="35.0936110">
<ele>470.397858</ele>
<time>2015-06-26T09:50:48.002Z</time>
</trkpt>
<trkpt lat="31.7491410" lon="35.0935870">
<ele>471.891357</ele>
<time>2015-06-26T09:50:42.999Z</time>
</trkpt>
<trkpt lat="31.7490710" lon="35.0935390">
<ele>473.110535</ele>
<time>2015-06-26T09:50:41.997Z</time>
</trkpt>
<trkpt lat="31.7489050" lon="35.0937090">
<ele>471.007446</ele>
<time>2015-06-26T09:50:37.997Z</time>
</trkpt>
<trkpt lat="31.7487080" lon="35.0937950">
<ele>471.098877</ele>
<time>2015-06-26T09:50:33.996Z</time>
</trkpt>
<trkpt lat="31.7483060" lon="35.0940440">
<ele>470.397858</ele>
<time>2015-06-26T09:50:26.998Z</time>
</trkpt>
<trkpt lat="31.7477800" lon="35.0944120">
<ele>465.490540</ele>
<time>2015-06-26T09:50:20.000Z</time>
</trkpt>
<trkpt lat="31.7473390" lon="35.0945720">
<ele>464.698059</ele>
<time>2015-06-26T09:50:10.003Z</time>
</trkpt>
<trkpt lat="31.7472690" lon="35.0945180">
<ele>464.911469</ele>
<time>2015-06-26T09:50:07.999Z</time>
</trkpt>
<trkpt lat="31.7471600" lon="35.0945870">
<ele>465.002869</ele>
<time>2015-06-26T09:50:05.001Z</time>
</trkpt>
<trkpt lat="31.7470630" lon="35.0945700">
<ele>465.185730</ele>
<time>2015-06-26T09:50:02.996Z</time>
</trkpt>
<trkpt lat="31.7468280" lon="35.0944330">
<ele>467.593658</ele>
<time>2015-06-26T09:49:58.002Z</time>
</trkpt>
<trkpt lat="31.7467010" lon="35.0941920">
<ele>467.898468</ele>
<time>2015-06-26T09:49:53.000Z</time>
</trkpt>
<trkpt lat="31.7467350" lon="35.0941210">
<ele>467.288879</ele>
<time>2015-06-26T09:49:51.997Z</time>
</trkpt>
<trkpt lat="31.7466820" lon="35.0940510">
<ele>467.410797</ele>
<time>2015-06-26T09:49:51.004Z</time>
</trkpt>
<trkpt lat="31.7467310" lon="35.0939420">
<ele>466.587860</ele>
<time>2015-06-26T09:49:50.002Z</time>
</trkpt>
<trkpt lat="31.7464800" lon="35.0936770">
<ele>466.892670</ele>
<time>2015-06-26T09:49:44.999Z</time>
</trkpt>
<trkpt lat="31.7463720" lon="35.0936220">
<ele>467.410797</ele>
<time>2015-06-26T09:49:43.003Z</time>
</trkpt>
<trkpt lat="31.7460190" lon="35.0936700">
<ele>471.891357</ele>
<time>2015-06-26T09:49:35.996Z</time>
</trkpt>
<trkpt lat="31.7455390" lon="35.0938970">
<ele>478.688385</ele>
<time>2015-06-26T09:49:23.002Z</time>
</trkpt>
<trkpt lat="31.7453050" lon="35.0938670">
<ele>482.010742</ele>
<time>2015-06-26T09:49:16.003Z</time>
</trkpt>
<trkpt lat="31.7451650" lon="35.0938880">
<ele>483.199463</ele>
<time>2015-06-26T09:49:12.003Z</time>
</trkpt>
<trkpt lat="31.7450610" lon="35.0940070">
<ele>482.285065</ele>
<time>2015-06-26T09:49:07.000Z</time>
</trkpt>
<trkpt lat="31.7446780" lon="35.0941000">
<ele>483.504242</ele>
<time>2015-06-26T09:48:57.997Z</time>
</trkpt>
<trkpt lat="31.7445020" lon="35.0941980">
<ele>482.102142</ele>
<time>2015-06-26T09:48:53.997Z</time>
</trkpt>
<trkpt lat="31.7441480" lon="35.0943200">
<ele>480.486725</ele>
<time>2015-06-26T09:48:48.001Z</time>
</trkpt>
<trkpt lat="31.7440540" lon="35.0944220">
<ele>478.200714</ele>
<time>2015-06-26T09:48:45.996Z</time>
</trkpt>
<trkpt lat="31.7438850" lon="35.0947840">
<ele>474.390717</ele>
<time>2015-06-26T09:48:37.002Z</time>
</trkpt>
<trkpt lat="31.7437180" lon="35.0949850">
<ele>473.994476</ele>
<time>2015-06-26T09:48:23.999Z</time>
</trkpt>
<trkpt lat="31.7434910" lon="35.0950700">
<ele>473.689667</ele>
<time>2015-06-26T09:48:15.998Z</time>
</trkpt>
<trkpt lat="31.7427800" lon="35.0950090">
<ele>474.207855</ele>
<time>2015-06-26T09:47:55.997Z</time>
</trkpt>
<trkpt lat="31.7425620" lon="35.0949390">
<ele>475.091736</ele>
<time>2015-06-26T09:47:51.003Z</time>
</trkpt>
<trkpt lat="31.7419390" lon="35.0949390">
<ele>477.103455</ele>
<time>2015-06-26T09:47:39.002Z</time>
</trkpt>
<trkpt lat="31.7416500" lon="35.0952550">
<ele>475.488007</ele>
<time>2015-06-26T09:47:31.001Z</time>
</trkpt>
<trkpt lat="31.7414230" lon="35.0956400">
<ele>474.207855</ele>
<time>2015-06-26T09:47:20.996Z</time>
</trkpt>
<trkpt lat="31.7413620" lon="35.0958930">
<ele>474.207855</ele>
<time>2015-06-26T09:47:16.002Z</time>
</trkpt>
<trkpt lat="31.7412800" lon="35.0960760">
<ele>474.207855</ele>
<time>2015-06-26T09:47:13.004Z</time>
</trkpt>
<trkpt lat="31.7412870" lon="35.0963020">
<ele>473.994476</ele>
<time>2015-06-26T09:47:09.004Z</time>
</trkpt>
<trkpt lat="31.7414190" lon="35.0971470">
<ele>475.701355</ele>
<time>2015-06-26T09:46:52.000Z</time>
</trkpt>
<trkpt lat="31.7416120" lon="35.0977920">
<ele>476.890076</ele>
<time>2015-06-26T09:46:39.999Z</time>
</trkpt>
<trkpt lat="31.7418560" lon="35.0982390">
<ele>477.713043</ele>
<time>2015-06-26T09:46:30.996Z</time>
</trkpt>
<trkpt lat="31.7423080" lon="35.0988300">
<ele>479.511353</ele>
<time>2015-06-26T09:46:15.997Z</time>
</trkpt>
<trkpt lat="31.7427120" lon="35.0994660">
<ele>481.187744</ele>
<time>2015-06-26T09:45:59.003Z</time>
</trkpt>
<trkpt lat="31.7430180" lon="35.1000610">
<ele>484.601532</ele>
<time>2015-06-26T09:45:45.999Z</time>
</trkpt>
<trkpt lat="31.7430590" lon="35.1002750">
<ele>486.186462</ele>
<time>2015-06-26T09:45:40.997Z</time>
</trkpt>
<trkpt lat="31.7430980" lon="35.1008430">
<ele>490.209869</ele>
<time>2015-06-26T09:45:28.002Z</time>
</trkpt>
<trkpt lat="31.7430540" lon="35.1013250">
<ele>493.288330</ele>
<time>2015-06-26T09:45:17.997Z</time>
</trkpt>
<trkpt lat="31.7430610" lon="35.1015480">
<ele>493.715057</ele>
<time>2015-06-26T09:45:13.003Z</time>
</trkpt>
<trkpt lat="31.7431350" lon="35.1020840">
<ele>493.897919</ele>
<time>2015-06-26T09:45:04.000Z</time>
</trkpt>
<trkpt lat="31.7431050" lon="35.1023710">
<ele>493.501678</ele>
<time>2015-06-26T09:45:00.000Z</time>
</trkpt>
<trkpt lat="31.7426790" lon="35.1037610">
<ele>501.609344</ele>
<time>2015-06-26T09:44:35.998Z</time>
</trkpt>
<trkpt lat="31.7427690" lon="35.1044070">
<ele>493.806458</ele>
<time>2015-06-26T09:44:26.002Z</time>
</trkpt>
<trkpt lat="31.7428960" lon="35.1046010">
<ele>487.801941</ele>
<time>2015-06-26T09:44:20.999Z</time>
</trkpt>
<trkpt lat="31.7428910" lon="35.1046700">
<ele>487.893341</ele>
<time>2015-06-26T09:44:19.003Z</time>
</trkpt>
<trkpt lat="31.7425860" lon="35.1057400">
<ele>492.709198</ele>
<time>2015-06-26T09:43:47.001Z</time>
</trkpt>
<trkpt lat="31.7425360" lon="35.1060510">
<ele>492.191040</ele>
<time>2015-06-26T09:43:37.998Z</time>
</trkpt>
<trkpt lat="31.7423910" lon="35.1063240">
<ele>492.008148</ele>
<time>2015-06-26T09:43:25.003Z</time>
</trkpt>
<trkpt lat="31.7423030" lon="35.1064040">
<ele>492.099609</ele>
<time>2015-06-26T09:43:21.003Z</time>
</trkpt>
<trkpt lat="31.7421880" lon="35.1064160">
<ele>491.886261</ele>
<time>2015-06-26T09:43:17.996Z</time>
</trkpt>
<trkpt lat="31.7420060" lon="35.1065100">
<ele>493.105469</ele>
<time>2015-06-26T09:43:13.996Z</time>
</trkpt>
<trkpt lat="31.7416040" lon="35.1066100">
<ele>500.298737</ele>
<time>2015-06-26T09:43:06.997Z</time>
</trkpt>
<trkpt lat="31.7414200" lon="35.1066880">
<ele>502.097046</ele>
<time>2015-06-26T09:43:03.999Z</time>
</trkpt>
<trkpt lat="31.7412610" lon="35.1068810">
<ele>499.506256</ele>
<time>2015-06-26T09:42:59.999Z</time>
</trkpt>
<trkpt lat="31.7410290" lon="35.1072520">
<ele>501.914154</ele>
<time>2015-06-26T09:42:53.001Z</time>
</trkpt>
<trkpt lat="31.7409880" lon="35.1073750">
<ele>502.615204</ele>
<time>2015-06-26T09:42:50.996Z</time>
</trkpt>
<trkpt lat="31.7409570" lon="35.1075150">
<ele>502.798065</ele>
<time>2015-06-26T09:42:49.000Z</time>
</trkpt>
<trkpt lat="31.7409670" lon="35.1077080">
<ele>500.999756</ele>
<time>2015-06-26T09:42:46.002Z</time>
</trkpt>
<trkpt lat="31.7410060" lon="35.1078150">
<ele>498.896667</ele>
<time>2015-06-26T09:42:43.998Z</time>
</trkpt>
<trkpt lat="31.7414570" lon="35.1084410">
<ele>494.903748</ele>
<time>2015-06-26T09:42:31.003Z</time>
</trkpt>
<trkpt lat="31.7415380" lon="35.1087580">
<ele>497.494537</ele>
<time>2015-06-26T09:42:26.001Z</time>
</trkpt>
<trkpt lat="31.7415000" lon="35.1088930">
<ele>497.403137</ele>
<time>2015-06-26T09:42:23.996Z</time>
</trkpt>
<trkpt lat="31.7413360" lon="35.1091320">
<ele>496.001068</ele>
<time>2015-06-26T09:42:19.996Z</time>
</trkpt>
<trkpt lat="31.7413100" lon="35.1095450">
<ele>497.494537</ele>
<time>2015-06-26T09:42:15.002Z</time>
</trkpt>
<trkpt lat="31.7412610" lon="35.1096410">
<ele>497.311676</ele>
<time>2015-06-26T09:42:12.997Z</time>
</trkpt>
<trkpt lat="31.7412260" lon="35.1101340">
<ele>498.896667</ele>
<time>2015-06-26T09:42:07.001Z</time>
</trkpt>
<trkpt lat="31.7411980" lon="35.1102020">
<ele>499.689117</ele>
<time>2015-06-26T09:42:05.999Z</time>
</trkpt>
<trkpt lat="31.7410880" lon="35.1103050">
<ele>502.401855</ele>
<time>2015-06-26T09:42:04.003Z</time>
</trkpt>
<trkpt lat="31.7407040" lon="35.1109320">
<ele>507.796814</ele>
<time>2015-06-26T09:41:53.998Z</time>
</trkpt>
<trkpt lat="31.7403460" lon="35.1112660">
<ele>508.985535</ele>
<time>2015-06-26T09:41:45.997Z</time>
</trkpt>
<trkpt lat="31.7397730" lon="35.1115670">
<ele>511.789673</ele>
<time>2015-06-26T09:41:34.999Z</time>
</trkpt>
<trkpt lat="31.7394430" lon="35.1116490">
<ele>512.003052</ele>
<time>2015-06-26T09:41:29.996Z</time>
</trkpt>
<trkpt lat="31.7390960" lon="35.1118110">
<ele>512.490723</ele>
<time>2015-06-26T09:41:24.000Z</time>
</trkpt>
<trkpt lat="31.7389430" lon="35.1118340">
<ele>513.709900</ele>
<time>2015-06-26T09:41:22.004Z</time>
</trkpt>
<trkpt lat="31.7386390" lon="35.1120100">
<ele>518.800049</ele>
<time>2015-06-26T09:41:17.002Z</time>
</trkpt>
<trkpt lat="31.7383840" lon="35.1122780">
<ele>527.212524</ele>
<time>2015-06-26T09:41:11.999Z</time>
</trkpt>
<trkpt lat="31.7380290" lon="35.1128790">
<ele>529.285217</ele>
<time>2015-06-26T09:41:02.003Z</time>
</trkpt>
<trkpt lat="31.7379390" lon="35.1129640">
<ele>530.291077</ele>
<time>2015-06-26T09:40:59.998Z</time>
</trkpt>
<trkpt lat="31.7377610" lon="35.1132760">
<ele>531.997925</ele>
<time>2015-06-26T09:40:54.002Z</time>
</trkpt>
<trkpt lat="31.7376580" lon="35.1136380">
<ele>529.894775</ele>
<time>2015-06-26T09:40:47.997Z</time>
</trkpt>
<trkpt lat="31.7372790" lon="35.1143660">
<ele>536.691833</ele>
<time>2015-06-26T09:39:53.004Z</time>
</trkpt>
<trkpt lat="31.7371510" lon="35.1145170">
<ele>538.307251</ele>
<time>2015-06-26T09:39:49.003Z</time>
</trkpt>
<trkpt lat="31.7370810" lon="35.1148950">
<ele>533.491455</ele>
<time>2015-06-26T09:39:42.998Z</time>
</trkpt>
<trkpt lat="31.7370920" lon="35.1149640">
<ele>531.997925</ele>
<time>2015-06-26T09:39:41.996Z</time>
</trkpt>
<trkpt lat="31.7369810" lon="35.1153700">
<ele>529.407104</ele>
<time>2015-06-26T09:39:34.998Z</time>
</trkpt>
<trkpt lat="31.7369010" lon="35.1158730">
<ele>527.212524</ele>
<time>2015-06-26T09:39:26.997Z</time>
</trkpt>
<trkpt lat="31.7368360" lon="35.1160800">
<ele>528.187927</ele>
<time>2015-06-26T09:39:23.999Z</time>
</trkpt>
<trkpt lat="31.7366950" lon="35.1162670">
<ele>533.400024</ele>
<time>2015-06-26T09:39:21.001Z</time>
</trkpt>
<trkpt lat="31.7362000" lon="35.1171490">
<ele>540.715210</ele>
<time>2015-06-26T09:39:07.004Z</time>
</trkpt>
<trkpt lat="31.7359510" lon="35.1177280">
<ele>543.702271</ele>
<time>2015-06-26T09:38:55.997Z</time>
</trkpt>
<trkpt lat="31.7358840" lon="35.1181570">
<ele>540.014160</ele>
<time>2015-06-26T09:38:47.996Z</time>
</trkpt>
<trkpt lat="31.7358920" lon="35.1183800">
<ele>536.295593</ele>
<time>2015-06-26T09:38:42.000Z</time>
</trkpt>
<trkpt lat="31.7359200" lon="35.1184740">
<ele>533.796265</ele>
<time>2015-06-26T09:34:51.001Z</time>
</trkpt>
<trkpt lat="31.7362020" lon="35.1186950">
<ele>520.293579</ele>
<time>2015-06-26T09:34:33.004Z</time>
</trkpt>
<trkpt lat="31.7363770" lon="35.1186880">
<ele>519.104858</ele>
<time>2015-06-26T09:34:29.004Z</time>
</trkpt>
<trkpt lat="31.7365900" lon="35.1188030">
<ele>519.988770</ele>
<time>2015-06-26T09:34:25.003Z</time>
</trkpt>
<trkpt lat="31.7369940" lon="35.1189170">
<ele>521.787109</ele>
<time>2015-06-26T09:34:20.001Z</time>
</trkpt>
<trkpt lat="31.7381310" lon="35.1190130">
<ele>541.507690</ele>
<time>2015-06-26T09:34:08.000Z</time>
</trkpt>
<trkpt lat="31.7404790" lon="35.1193770">
<ele>543.092651</ele>
<time>2015-06-26T09:33:45.000Z</time>
</trkpt>
<trkpt lat="31.7418960" lon="35.1199650">
<ele>554.705505</ele>
<time>2015-06-26T09:33:31.003Z</time>
</trkpt>
<trkpt lat="31.7423440" lon="35.1202180">
<ele>552.785278</ele>
<time>2015-06-26T09:33:26.001Z</time>
</trkpt>
<trkpt lat="31.7427910" lon="35.1203410">
<ele>555.101746</ele>
<time>2015-06-26T09:33:20.998Z</time>
</trkpt>
<trkpt lat="31.7430310" lon="35.1204980">
<ele>554.400757</ele>
<time>2015-06-26T09:33:18.000Z</time>
</trkpt>
<trkpt lat="31.7434520" lon="35.1209860">
<ele>551.809937</ele>
<time>2015-06-26T09:33:12.004Z</time>
</trkpt>
<trkpt lat="31.7439610" lon="35.1214780">
<ele>555.101746</ele>
<time>2015-06-26T09:33:04.997Z</time>
</trkpt>
<trkpt lat="31.7444930" lon="35.1219340">
<ele>563.514282</ele>
<time>2015-06-26T09:32:56.996Z</time>
</trkpt>
<trkpt lat="31.7447600" lon="35.1221080">
<ele>568.695862</ele>
<time>2015-06-26T09:32:52.996Z</time>
</trkpt>
<trkpt lat="31.7449080" lon="35.1223260">
<ele>568.695862</ele>
<time>2015-06-26T09:32:49.998Z</time>
</trkpt>
<trkpt lat="31.7450120" lon="35.1229390">
<ele>558.302124</ele>
<time>2015-06-26T09:32:44.002Z</time>
</trkpt>
<trkpt lat="31.7453490" lon="35.1237420">
<ele>565.099182</ele>
<time>2015-06-26T09:32:36.001Z</time>
</trkpt>
<trkpt lat="31.7454920" lon="35.1243580">
<ele>561.411133</ele>
<time>2015-06-26T09:32:29.996Z</time>
</trkpt>
<trkpt lat="31.7458130" lon="35.1253250">
<ele>566.592712</ele>
<time>2015-06-26T09:32:20.000Z</time>
</trkpt>
<trkpt lat="31.7460310" lon="35.1256010">
<ele>576.986389</ele>
<time>2015-06-26T09:32:15.999Z</time>
</trkpt>
<trkpt lat="31.7460540" lon="35.1258020">
<ele>576.986389</ele>
<time>2015-06-26T09:32:14.004Z</time>
</trkpt>
<trkpt lat="31.7459320" lon="35.1262180">
<ele>568.086243</ele>
<time>2015-06-26T09:32:10.003Z</time>
</trkpt>
<trkpt lat="31.7458950" lon="35.1265590">
<ele>566.409851</ele>
<time>2015-06-26T09:32:06.996Z</time>
</trkpt>
<trkpt lat="31.7459400" lon="35.1266540">
<ele>568.695862</ele>
<time>2015-06-26T09:32:06.003Z</time>
</trkpt>
<trkpt lat="31.7460510" lon="35.1268360">
<ele>574.304138</ele>
<time>2015-06-26T09:32:03.998Z</time>
</trkpt>
<trkpt lat="31.7462040" lon="35.1269710">
<ele>581.802246</ele>
<time>2015-06-26T09:32:02.003Z</time>
</trkpt>
<trkpt lat="31.7464460" lon="35.1270690">
<ele>591.312012</ele>
<time>2015-06-26T09:31:58.996Z</time>
</trkpt>
<trkpt lat="31.7466060" lon="35.1272400">
<ele>594.085693</ele>
<time>2015-06-26T09:31:57.000Z</time>
</trkpt>
<trkpt lat="31.7469870" lon="35.1274850">
<ele>602.101929</ele>
<time>2015-06-26T09:31:51.997Z</time>
</trkpt>
<trkpt lat="31.7471980" lon="35.1275720">
<ele>607.801697</ele>
<time>2015-06-26T09:31:48.999Z</time>
</trkpt>
<trkpt lat="31.7472970" lon="35.1276820">
<ele>608.898926</ele>
<time>2015-06-26T09:31:47.004Z</time>
</trkpt>
<trkpt lat="31.7473250" lon="35.1277700">
<ele>607.710266</ele>
<time>2015-06-26T09:31:46.001Z</time>
</trkpt>
<trkpt lat="31.7473100" lon="35.1279190">
<ele>603.412537</ele>
<time>2015-06-26T09:31:43.997Z</time>
</trkpt>
<trkpt lat="31.7472030" lon="35.1281440">
<ele>598.901550</ele>
<time>2015-06-26T09:31:40.999Z</time>
</trkpt>
<trkpt lat="31.7471760" lon="35.1283500">
<ele>597.499451</ele>
<time>2015-06-26T09:31:39.003Z</time>
</trkpt>
<trkpt lat="31.7472010" lon="35.1291350">
<ele>608.411255</ele>
<time>2015-06-26T09:31:31.002Z</time>
</trkpt>
<trkpt lat="31.7471610" lon="35.1292520">
<ele>610.514404</ele>
<time>2015-06-26T09:31:28.998Z</time>
</trkpt>
<trkpt lat="31.7469500" lon="35.1293300">
<ele>608.990417</ele>
<time>2015-06-26T09:31:26.000Z</time>
</trkpt>
<trkpt lat="31.7463940" lon="35.1294350">
<ele>606.491028</ele>
<time>2015-06-26T09:31:20.004Z</time>
</trkpt>
<trkpt lat="31.7457520" lon="35.1298040">
<ele>618.591614</ele>
<time>2015-06-26T09:31:12.003Z</time>
</trkpt>
<trkpt lat="31.7454980" lon="35.1298570">
<ele>620.786133</ele>
<time>2015-06-26T09:31:08.996Z</time>
</trkpt>
<trkpt lat="31.7451500" lon="35.1298660">
<ele>618.500122</ele>
<time>2015-06-26T09:31:04.996Z</time>
</trkpt>
<trkpt lat="31.7448910" lon="35.1299710">
<ele>619.597473</ele>
<time>2015-06-26T09:31:01.998Z</time>
</trkpt>
<trkpt lat="31.7442700" lon="35.1302700">
<ele>621.487183</ele>
<time>2015-06-26T09:30:54.999Z</time>
</trkpt>
<trkpt lat="31.7438810" lon="35.1305700">
<ele>622.889282</ele>
<time>2015-06-26T09:30:49.997Z</time>
</trkpt>
<trkpt lat="31.7435970" lon="35.1310030">
<ele>622.889282</ele>
<time>2015-06-26T09:30:44.001Z</time>
</trkpt>
<trkpt lat="31.7435150" lon="35.1312710">
<ele>624.504700</ele>
<time>2015-06-26T09:30:41.003Z</time>
</trkpt>
<trkpt lat="31.7434440" lon="35.1316550">
<ele>627.613708</ele>
<time>2015-06-26T09:30:37.002Z</time>
</trkpt>
<trkpt lat="31.7433920" lon="35.1322160">
<ele>635.111755</ele>
<time>2015-06-26T09:30:30.997Z</time>
</trkpt>
<trkpt lat="31.7434030" lon="35.1324760">
<ele>640.811462</ele>
<time>2015-06-26T09:30:27.999Z</time>
</trkpt>
<trkpt lat="31.7434490" lon="35.1328200">
<ele>648.705872</ele>
<time>2015-06-26T09:30:23.999Z</time>
</trkpt>
<trkpt lat="31.7435330" lon="35.1330730">
<ele>655.502930</ele>
<time>2015-06-26T09:30:21.001Z</time>
</trkpt>
<trkpt lat="31.7435450" lon="35.1332230">
<ele>658.886169</ele>
<time>2015-06-26T09:30:18.996Z</time>
</trkpt>
<trkpt lat="31.7433860" lon="35.1333640">
<ele>660.714966</ele>
<time>2015-06-26T09:30:14.996Z</time>
</trkpt>
<trkpt lat="31.7426100" lon="35.1333610">
<ele>662.208496</ele>
<time>2015-06-26T09:30:05.000Z</time>
</trkpt>
<trkpt lat="31.7421820" lon="35.1333290">
<ele>668.213074</ele>
<time>2015-06-26T09:29:59.997Z</time>
</trkpt>
<trkpt lat="31.7415270" lon="35.1331960">
<ele>677.296082</ele>
<time>2015-06-26T09:29:51.996Z</time>
</trkpt>
<trkpt lat="31.7411130" lon="35.1329610">
<ele>678.606689</ele>
<time>2015-06-26T09:29:44.998Z</time>
</trkpt>
<trkpt lat="31.7404860" lon="35.1324230">
<ele>674.491882</ele>
<time>2015-06-26T09:29:29.999Z</time>
</trkpt>
<trkpt lat="31.7403000" lon="35.1323120">
<ele>673.089844</ele>
<time>2015-06-26T09:29:23.001Z</time>
</trkpt>
<trkpt lat="31.7399900" lon="35.1322230">
<ele>671.200134</ele>
<time>2015-06-26T09:15:35.997Z</time>
</trkpt>
<trkpt lat="31.7399340" lon="35.1321930">
<ele>670.590515</ele>
<time>2015-06-26T09:15:31.997Z</time>
</trkpt>
<trkpt lat="31.7393930" lon="35.1318230">
<ele>659.709106</ele>
<time>2015-06-26T09:14:53.998Z</time>
</trkpt>
<trkpt lat="31.7390960" lon="35.1318880">
<ele>656.813477</ele>
<time>2015-06-26T09:14:37.997Z</time>
</trkpt>
<trkpt lat="31.7388540" lon="35.1320400">
<ele>655.990540</ele>
<time>2015-06-26T09:14:24.000Z</time>
</trkpt>
<trkpt lat="31.7384540" lon="35.1325450">
<ele>645.993103</ele>
<time>2015-06-26T09:13:53.000Z</time>
</trkpt>
<trkpt lat="31.7384310" lon="35.1329820">
<ele>645.596924</ele>
<time>2015-06-26T09:13:31.996Z</time>
</trkpt>
<trkpt lat="31.7383740" lon="35.1331820">
<ele>642.305054</ele>
<time>2015-06-26T09:13:19.001Z</time>
</trkpt>
<trkpt lat="31.7384120" lon="35.1340100">
<ele>640.994385</ele>
<time>2015-06-26T09:12:30.004Z</time>
</trkpt>
<trkpt lat="31.7383630" lon="35.1345940">
<ele>633.587769</ele>
<time>2015-06-26T09:12:00.999Z</time>
</trkpt>
<trkpt lat="31.7383640" lon="35.1358860">
<ele>626.699280</ele>
<time>2015-06-26T09:10:54.998Z</time>
</trkpt>
<trkpt lat="31.7383370" lon="35.1360670">
<ele>624.687622</ele>
<time>2015-06-26T09:10:46.998Z</time>
</trkpt>
<trkpt lat="31.7382490" lon="35.1362400">
<ele>618.804932</ele>
<time>2015-06-26T09:10:38.997Z</time>
</trkpt>
<trkpt lat="31.7381810" lon="35.1364640">
<ele>614.812073</ele>
<time>2015-06-26T09:10:26.996Z</time>
</trkpt>
<trkpt lat="31.7381030" lon="35.1368000">
<ele>609.996277</ele>
<time>2015-06-26T09:10:11.004Z</time>
</trkpt>
<trkpt lat="31.7380510" lon="35.1371630">
<ele>607.588318</ele>
<time>2015-06-26T09:09:54.000Z</time>
</trkpt>
<trkpt lat="31.7379520" lon="35.1375250">
<ele>606.186279</ele>
<time>2015-06-26T09:09:37.999Z</time>
</trkpt>
<trkpt lat="31.7379150" lon="35.1379080">
<ele>609.813354</ele>
<time>2015-06-26T09:09:13.997Z</time>
</trkpt>
<trkpt lat="31.7378760" lon="35.1380210">
<ele>608.898926</ele>
<time>2015-06-26T09:09:06.998Z</time>
</trkpt>
<trkpt lat="31.7380780" lon="35.1386270">
<ele>623.011230</ele>
<time>2015-06-26T09:08:23.004Z</time>
</trkpt>
<trkpt lat="31.7380680" lon="35.1387770">
<ele>623.803650</ele>
<time>2015-06-26T09:08:15.003Z</time>
</trkpt>
<trkpt lat="31.7376050" lon="35.1387920">
<ele>608.502747</ele>
<time>2015-06-26T09:07:36.002Z</time>
</trkpt>
<trkpt lat="31.7372800" lon="35.1388270">
<ele>600.090271</ele>
<time>2015-06-26T09:07:17.996Z</time>
</trkpt>
<trkpt lat="31.7368860" lon="35.1388830">
<ele>593.110352</ele>
<time>2015-06-26T09:06:54.003Z</time>
</trkpt>
<trkpt lat="31.7367600" lon="35.1388270">
<ele>587.502014</ele>
<time>2015-06-26T09:06:46.002Z</time>
</trkpt>
<trkpt lat="31.7366350" lon="35.1388240">
<ele>584.789246</ele>
<time>2015-06-26T09:06:38.002Z</time>
</trkpt>
<trkpt lat="31.7363140" lon="35.1389400">
<ele>584.088257</ele>
<time>2015-06-26T09:06:16.998Z</time>
</trkpt>
<trkpt lat="31.7361790" lon="35.1389260">
<ele>581.802246</ele>
<time>2015-06-26T09:06:08.997Z</time>
</trkpt>
<trkpt lat="31.7359270" lon="35.1389870">
<ele>583.600525</ele>
<time>2015-06-26T09:05:55.000Z</time>
</trkpt>
<trkpt lat="31.7354440" lon="35.1390600">
<ele>584.210144</ele>
<time>2015-06-26T09:05:26.998Z</time>
</trkpt>
<trkpt lat="31.7351550" lon="35.1390530">
<ele>582.411865</ele>
<time>2015-06-26T09:05:10.003Z</time>
</trkpt>
<trkpt lat="31.7347730" lon="35.1390510">
<ele>580.308716</ele>
<time>2015-06-26T09:04:57.000Z</time>
</trkpt>
<trkpt lat="31.7344080" lon="35.1392550">
<ele>583.996826</ele>
<time>2015-06-26T09:04:51.004Z</time>
</trkpt>
<trkpt lat="31.7341050" lon="35.1393780">
<ele>584.697876</ele>
<time>2015-06-26T09:04:44.999Z</time>
</trkpt>
<trkpt lat="31.7337040" lon="35.1394270">
<ele>582.411865</ele>
<time>2015-06-26T09:04:39.003Z</time>
</trkpt>
<trkpt lat="31.7334410" lon="35.1394100">
<ele>580.186829</ele>
<time>2015-06-26T09:04:31.996Z</time>
</trkpt>
<trkpt lat="31.7331560" lon="35.1395040">
<ele>578.388489</ele>
<time>2015-06-26T09:04:20.997Z</time>
</trkpt>
<trkpt lat="31.7330090" lon="35.1396160">
<ele>577.504517</ele>
<time>2015-06-26T09:04:13.999Z</time>
</trkpt>
<trkpt lat="31.7329830" lon="35.1397300">
<ele>578.998047</ele>
<time>2015-06-26T09:04:11.001Z</time>
</trkpt>
<trkpt lat="31.7330020" lon="35.1398520">
<ele>581.101196</ele>
<time>2015-06-26T09:04:08.003Z</time>
</trkpt>
<trkpt lat="31.7332040" lon="35.1401820">
<ele>590.214722</ele>
<time>2015-06-26T09:03:54.999Z</time>
</trkpt>
<trkpt lat="31.7334490" lon="35.1404680">
<ele>599.389221</ele>
<time>2015-06-26T09:03:41.996Z</time>
</trkpt>
<trkpt lat="31.7335550" lon="35.1406630">
<ele>598.992920</ele>
<time>2015-06-26T09:03:34.004Z</time>
</trkpt>
<trkpt lat="31.7336710" lon="35.1410340">
<ele>596.310730</ele>
<time>2015-06-26T09:03:19.999Z</time>
</trkpt>
<trkpt lat="31.7339740" lon="35.1416860">
<ele>595.304871</ele>
<time>2015-06-26T09:02:50.001Z</time>
</trkpt>
<trkpt lat="31.7342220" lon="35.1425000">
<ele>593.506531</ele>
<time>2015-06-26T09:02:32.004Z</time>
</trkpt>
<trkpt lat="31.7343390" lon="35.1427270">
<ele>594.299072</ele>
<time>2015-06-26T09:02:27.001Z</time>
</trkpt>
<trkpt lat="31.7345180" lon="35.1437330">
<ele>590.489075</ele>
<time>2015-06-26T09:02:01.997Z</time>
</trkpt>
<trkpt lat="31.7345290" lon="35.1440540">
<ele>589.391724</ele>
<time>2015-06-26T09:01:50.998Z</time>
</trkpt>
<trkpt lat="31.7346490" lon="35.1443390">
<ele>591.190063</ele>
<time>2015-06-26T09:01:44.000Z</time>
</trkpt>
<trkpt lat="31.7346460" lon="35.1446160">
<ele>589.605103</ele>
<time>2015-06-26T09:01:34.997Z</time>
</trkpt>
<trkpt lat="31.7346920" lon="35.1447890">
<ele>590.397583</ele>
<time>2015-06-26T09:01:30.996Z</time>
</trkpt>
<trkpt lat="31.7347690" lon="35.1448890">
<ele>592.195923</ele>
<time>2015-06-26T09:01:27.998Z</time>
</trkpt>
<trkpt lat="31.7350730" lon="35.1450870">
<ele>598.109070</ele>
<time>2015-06-26T09:01:14.002Z</time>
</trkpt>
<trkpt lat="31.7352320" lon="35.1451370">
<ele>600.791260</ele>
<time>2015-06-26T09:01:06.001Z</time>
</trkpt>
<trkpt lat="31.7354450" lon="35.1453250">
<ele>600.090271</ele>
<time>2015-06-26T09:00:54.000Z</time>
</trkpt>
<trkpt lat="31.7357970" lon="35.1457560">
<ele>605.210876</ele>
<time>2015-06-26T09:00:37.999Z</time>
</trkpt>
<trkpt lat="31.7358980" lon="35.1459400">
<ele>604.205078</ele>
<time>2015-06-26T09:00:32.996Z</time>
</trkpt>
<trkpt lat="31.7360430" lon="35.1464620">
<ele>598.200500</ele>
<time>2015-06-26T09:00:20.002Z</time>
</trkpt>
<trkpt lat="31.7360370" lon="35.1466090">
<ele>597.194641</ele>
<time>2015-06-26T09:00:17.004Z</time>
</trkpt>
<trkpt lat="31.7361290" lon="35.1467940">
<ele>595.304871</ele>
<time>2015-06-26T09:00:13.997Z</time>
</trkpt>
<trkpt lat="31.7362940" lon="35.1469230">
<ele>593.506531</ele>
<time>2015-06-26T09:00:09.003Z</time>
</trkpt>
<trkpt lat="31.7364990" lon="35.1469790">
<ele>598.200500</ele>
<time>2015-06-26T09:00:02.998Z</time>
</trkpt>
<trkpt lat="31.7366380" lon="35.1471120">
<ele>599.114868</ele>
<time>2015-06-26T08:59:56.000Z</time>
</trkpt>
<trkpt lat="31.7368690" lon="35.1471590">
<ele>603.686890</ele>
<time>2015-06-26T08:59:46.997Z</time>
</trkpt>
<trkpt lat="31.7375030" lon="35.1475020">
<ele>608.197937</ele>
<time>2015-06-26T08:59:16.999Z</time>
</trkpt>
<trkpt lat="31.7375350" lon="35.1475720">
<ele>606.704407</ele>
<time>2015-06-26T08:59:14.001Z</time>
</trkpt>
<trkpt lat="31.7375950" lon="35.1476390">
<ele>605.485229</ele>
<time>2015-06-26T08:59:10.000Z</time>
</trkpt>
<trkpt lat="31.7376970" lon="35.1477650">
<ele>602.802917</ele>
<time>2015-06-26T08:59:07.002Z</time>
</trkpt>
<trkpt lat="31.7379990" lon="35.1484500">
<ele>595.701111</ele>
<time>2015-06-26T08:58:56.004Z</time>
</trkpt>
<trkpt lat="31.7382820" lon="35.1487920">
<ele>595.396301</ele>
<time>2015-06-26T08:58:48.996Z</time>
</trkpt>
<trkpt lat="31.7383730" lon="35.1489850">
<ele>596.585083</ele>
<time>2015-06-26T08:58:44.996Z</time>
</trkpt>
<trkpt lat="31.7383950" lon="35.1491090">
<ele>596.889832</ele>
<time>2015-06-26T08:58:41.998Z</time>
</trkpt>
<trkpt lat="31.7383260" lon="35.1492870">
<ele>596.188782</ele>
<time>2015-06-26T08:58:39.000Z</time>
</trkpt>
<trkpt lat="31.7383280" lon="35.1494170">
<ele>596.310730</ele>
<time>2015-06-26T08:58:37.004Z</time>
</trkpt>
<trkpt lat="31.7382920" lon="35.1495710">
<ele>596.005920</ele>
<time>2015-06-26T08:58:35.000Z</time>
</trkpt>
<trkpt lat="31.7383160" lon="35.1497790">
<ele>596.493591</ele>
<time>2015-06-26T08:58:30.999Z</time>
</trkpt>
<trkpt lat="31.7384420" lon="35.1499990">
<ele>598.291931</ele>
<time>2015-06-26T08:58:25.997Z</time>
</trkpt>
<trkpt lat="31.7384580" lon="35.1501250">
<ele>598.688171</ele>
<time>2015-06-26T08:58:22.999Z</time>
</trkpt>
<trkpt lat="31.7385040" lon="35.1502040">
<ele>599.389221</ele>
<time>2015-06-26T08:58:21.003Z</time>
</trkpt>
<trkpt lat="31.7386860" lon="35.1504670">
<ele>602.010498</ele>
<time>2015-06-26T08:58:13.996Z</time>
</trkpt>
<trkpt lat="31.7389080" lon="35.1506100">
<ele>605.911926</ele>
<time>2015-06-26T08:58:06.997Z</time>
</trkpt>
<trkpt lat="31.7390860" lon="35.1506380">
<ele>609.996277</ele>
<time>2015-06-26T08:58:02.997Z</time>
</trkpt>
<trkpt lat="31.7394350" lon="35.1507970">
<ele>616.305603</ele>
<time>2015-06-26T08:57:57.001Z</time>
</trkpt>
<trkpt lat="31.7396140" lon="35.1510680">
<ele>616.305603</ele>
<time>2015-06-26T08:57:53.001Z</time>
</trkpt>
<trkpt lat="31.7397710" lon="35.1515170">
<ele>614.385315</ele>
<time>2015-06-26T08:57:46.002Z</time>
</trkpt>
<trkpt lat="31.7398340" lon="35.1516020">
<ele>614.812073</ele>
<time>2015-06-26T08:57:43.998Z</time>
</trkpt>
<trkpt lat="31.7401040" lon="35.1517530">
<ele>618.896423</ele>
<time>2015-06-26T08:57:35.004Z</time>
</trkpt>
<trkpt lat="31.7402930" lon="35.1520300">
<ele>619.201172</ele>
<time>2015-06-26T08:57:26.001Z</time>
</trkpt>
<trkpt lat="31.7405620" lon="35.1522360">
<ele>621.487183</ele>
<time>2015-06-26T08:57:19.002Z</time>
</trkpt>
<trkpt lat="31.7408100" lon="35.1522110">
<ele>626.912659</ele>
<time>2015-06-26T08:57:12.997Z</time>
</trkpt>
<trkpt lat="31.7410070" lon="35.1523190">
<ele>628.985291</ele>
<time>2015-06-26T08:57:07.001Z</time>
</trkpt>
<trkpt lat="31.7415099" lon="35.1527734">
<ele>632.490540</ele>
<time>2015-06-26T08:56:45.004Z</time>
</trkpt>
<trkpt lat="31.7419610" lon="35.1528350">
<ele>636.696716</ele>
<time>2015-06-26T08:56:40.001Z</time>
</trkpt>
<trkpt lat="31.7421210" lon="35.1528680">
<ele>638.403625</ele>
<time>2015-06-26T08:56:36.001Z</time>
</trkpt>
<trkpt lat="31.7426970" lon="35.1531530">
<ele>635.812805</ele>
<time>2015-06-26T08:56:15.999Z</time>
</trkpt>
<trkpt lat="31.7428830" lon="35.1531811">
<ele>634.197327</ele>
<time>2015-06-26T08:56:02.996Z</time>
</trkpt>
<trkpt lat="31.7430198" lon="35.1531919">
<ele>635.995728</ele>
<time>2015-06-26T08:55:53.000Z</time>
</trkpt>
<trkpt lat="31.7434852" lon="35.1532133">
<ele>637.794006</ele>
<time>2015-06-26T08:55:38.001Z</time>
</trkpt>
<trkpt lat="31.7442350" lon="35.1530420">
<ele>651.510010</ele>
<time>2015-06-26T08:55:20.997Z</time>
</trkpt>
<trkpt lat="31.7443770" lon="35.1530250">
<ele>653.186401</ele>
<time>2015-06-26T08:55:17.999Z</time>
</trkpt>
<trkpt lat="31.7445000" lon="35.1530990">
<ele>652.089111</ele>
<time>2015-06-26T08:55:16.003Z</time>
</trkpt>
<trkpt lat="31.7446170" lon="35.1532440">
<ele>649.193481</ele>
<time>2015-06-26T08:55:13.999Z</time>
</trkpt>
<trkpt lat="31.7446180" lon="35.1533650">
<ele>645.810242</ele>
<time>2015-06-26T08:55:09.998Z</time>
</trkpt>
<trkpt lat="31.7443570" lon="35.1537590">
<ele>632.307617</ele>
<time>2015-06-26T08:54:57.004Z</time>
</trkpt>
<trkpt lat="31.7443310" lon="35.1538550">
<ele>631.301758</ele>
<time>2015-06-26T08:54:54.999Z</time>
</trkpt>
<trkpt lat="31.7443410" lon="35.1540700">
<ele>629.503479</ele>
<time>2015-06-26T08:54:48.001Z</time>
</trkpt>
<trkpt lat="31.7444230" lon="35.1545200">
<ele>627.186951</ele>
<time>2015-06-26T08:54:37.996Z</time>
</trkpt>
<trkpt lat="31.7444870" lon="35.1546120">
<ele>627.705078</ele>
<time>2015-06-26T08:54:36.000Z</time>
</trkpt>
<trkpt lat="31.7447850" lon="35.1549170">
<ele>631.911316</ele>
<time>2015-06-26T08:54:25.001Z</time>
</trkpt>
<trkpt lat="31.7451300" lon="35.1553630">
<ele>634.105896</ele>
<time>2015-06-26T08:54:02.002Z</time>
</trkpt>
<trkpt lat="31.7452830" lon="35.1554260">
<ele>636.513855</ele>
<time>2015-06-26T08:53:54.001Z</time>
</trkpt>
<trkpt lat="31.7454450" lon="35.1557130">
<ele>632.307617</ele>
<time>2015-06-26T08:53:43.002Z</time>
</trkpt>
<trkpt lat="31.7458000" lon="35.1559680">
<ele>635.203186</ele>
<time>2015-06-26T08:53:31.001Z</time>
</trkpt>
<trkpt lat="31.7459590" lon="35.1561440">
<ele>634.685059</ele>
<time>2015-06-26T08:53:23.001Z</time>
</trkpt>
<trkpt lat="31.7461830" lon="35.1562580">
<ele>637.885437</ele>
<time>2015-06-26T08:53:13.998Z</time>
</trkpt>
<trkpt lat="31.7465360" lon="35.1565100">
<ele>639.409485</ele>
<time>2015-06-26T08:53:01.003Z</time>
</trkpt>
<trkpt lat="31.7467400" lon="35.1569040">
<ele>633.801086</ele>
<time>2015-06-26T08:52:46.998Z</time>
</trkpt>
<trkpt lat="31.7468210" lon="35.1569790">
<ele>633.709717</ele>
<time>2015-06-26T08:52:44.000Z</time>
</trkpt>
<trkpt lat="31.7468930" lon="35.1571550">
<ele>631.606567</ele>
<time>2015-06-26T08:52:35.999Z</time>
</trkpt>
<trkpt lat="31.7473820" lon="35.1572670">
<ele>640.506714</ele>
<time>2015-06-26T08:52:25.000Z</time>
</trkpt>
<trkpt lat="31.7476220" lon="35.1572580">
<ele>645.901733</ele>
<time>2015-06-26T08:52:19.004Z</time>
</trkpt>
<trkpt lat="31.7476410" lon="35.1573440">
<ele>644.712952</ele>
<time>2015-06-26T08:52:17.000Z</time>
</trkpt>
<trkpt lat="31.7475710" lon="35.1575060">
<ele>640.110535</ele>
<time>2015-06-26T08:52:12.999Z</time>
</trkpt>
<trkpt lat="31.7473200" lon="35.1579240">
<ele>627.491760</ele>
<time>2015-06-26T08:51:59.996Z</time>
</trkpt>
<trkpt lat="31.7472680" lon="35.1582800">
<ele>625.297180</ele>
<time>2015-06-26T08:51:52.004Z</time>
</trkpt>
<trkpt lat="31.7472830" lon="35.1583600">
<ele>625.388672</ele>
<time>2015-06-26T08:51:50.000Z</time>
</trkpt>
<trkpt lat="31.7475690" lon="35.1588340">
<ele>629.290100</ele>
<time>2015-06-26T08:51:36.003Z</time>
</trkpt>
<trkpt lat="31.7479620" lon="35.1591000">
<ele>634.410706</ele>
<time>2015-06-26T08:50:53.002Z</time>
</trkpt>
<trkpt lat="31.7479670" lon="35.1590330">
<ele>635.294678</ele>
<time>2015-06-26T08:50:08.998Z</time>
</trkpt>
<trkpt lat="31.7479910" lon="35.1590500">
<ele>635.690918</ele>
<time>2015-06-26T08:50:07.002Z</time>
</trkpt>
<trkpt lat="31.7483840" lon="35.1593480">
<ele>642.000244</ele>
<time>2015-06-26T08:49:56.004Z</time>
</trkpt>
<trkpt lat="31.7484620" lon="35.1595440">
<ele>640.994385</ele>
<time>2015-06-26T08:49:51.001Z</time>
</trkpt>
<trkpt lat="31.7484520" lon="35.1596350">
<ele>639.988525</ele>
<time>2015-06-26T08:49:48.996Z</time>
</trkpt>
<trkpt lat="31.7483240" lon="35.1598150">
<ele>636.696716</ele>
<time>2015-06-26T08:49:44.003Z</time>
</trkpt>
<trkpt lat="31.7482160" lon="35.1599110">
<ele>634.288818</ele>
<time>2015-06-26T08:49:40.002Z</time>
</trkpt>
<trkpt lat="31.7481100" lon="35.1599420">
<ele>632.002808</ele>
<time>2015-06-26T08:49:33.997Z</time>
</trkpt>
<trkpt lat="31.7480760" lon="35.1600510">
<ele>631.210266</ele>
<time>2015-06-26T08:49:25.003Z</time>
</trkpt>
<trkpt lat="31.7479850" lon="35.1600800">
<ele>629.411987</ele>
<time>2015-06-26T08:49:17.996Z</time>
</trkpt>
<trkpt lat="31.7478910" lon="35.1601950">
<ele>627.613708</ele>
<time>2015-06-26T08:49:10.998Z</time>
</trkpt>
<trkpt lat="31.7477810" lon="35.1606230">
<ele>626.089722</ele>
<time>2015-06-26T08:48:54.996Z</time>
</trkpt>
<trkpt lat="31.7478290" lon="35.1607700">
<ele>627.004089</ele>
<time>2015-06-26T08:48:49.000Z</time>
</trkpt>
<trkpt lat="31.7480280" lon="35.1610280">
<ele>630.905518</ele>
<time>2015-06-26T08:48:38.002Z</time>
</trkpt>
<trkpt lat="31.7482920" lon="35.1612020">
<ele>636.513855</ele>
<time>2015-06-26T08:48:31.003Z</time>
</trkpt>
<trkpt lat="31.7483130" lon="35.1612530">
<ele>637.092957</ele>
<time>2015-06-26T08:48:30.001Z</time>
</trkpt>
<trkpt lat="31.7482290" lon="35.1614440">
<ele>636.788147</ele>
<time>2015-06-26T08:48:27.003Z</time>
</trkpt>
<trkpt lat="31.7478050" lon="35.1616350">
<ele>631.088379</ele>
<time>2015-06-26T08:48:19.002Z</time>
</trkpt>
<trkpt lat="31.7474440" lon="35.1617210">
<ele>625.601990</ele>
<time>2015-06-26T08:48:09.999Z</time>
</trkpt>
<trkpt lat="31.7470140" lon="35.1619920">
<ele>621.304321</ele>
<time>2015-06-26T08:47:56.996Z</time>
</trkpt>
<trkpt lat="31.7466730" lon="35.1625410">
<ele>623.803650</ele>
<time>2015-06-26T08:47:40.001Z</time>
</trkpt>
<trkpt lat="31.7464770" lon="35.1631160">
<ele>626.912659</ele>
<time>2015-06-26T08:47:25.996Z</time>
</trkpt>
<trkpt lat="31.7461490" lon="35.1635210">
<ele>627.308899</ele>
<time>2015-06-26T08:47:11.999Z</time>
</trkpt>
<trkpt lat="31.7460270" lon="35.1636070">
<ele>627.095520</ele>
<time>2015-06-26T08:47:06.996Z</time>
</trkpt>
<trkpt lat="31.7458890" lon="35.1636320">
<ele>625.601990</ele>
<time>2015-06-26T08:47:01.000Z</time>
</trkpt>
<trkpt lat="31.7457330" lon="35.1637040">
<ele>624.199951</ele>
<time>2015-06-26T08:46:54.002Z</time>
</trkpt>
<trkpt lat="31.7451640" lon="35.1644010">
<ele>630.814087</ele>
<time>2015-06-26T08:46:28.998Z</time>
</trkpt>
<trkpt lat="31.7447420" lon="35.1647590">
<ele>631.088379</ele>
<time>2015-06-26T08:46:11.001Z</time>
</trkpt>
<trkpt lat="31.7441580" lon="35.1654700">
<ele>630.692139</ele>
<time>2015-06-26T08:45:40.000Z</time>
</trkpt>
<trkpt lat="31.7440110" lon="35.1658500">
<ele>630.509338</ele>
<time>2015-06-26T08:45:29.002Z</time>
</trkpt>
<trkpt lat="31.7439530" lon="35.1662260">
<ele>631.515076</ele>
<time>2015-06-26T08:45:18.996Z</time>
</trkpt>
<trkpt lat="31.7438740" lon="35.1664750">
<ele>631.210266</ele>
<time>2015-06-26T08:45:10.996Z</time>
</trkpt>
<trkpt lat="31.7439300" lon="35.1671130">
<ele>634.989868</ele>
<time>2015-06-26T08:44:51.003Z</time>
</trkpt>
<trkpt lat="31.7439060" lon="35.1673690">
<ele>635.111755</ele>
<time>2015-06-26T08:44:43.002Z</time>
</trkpt>
<trkpt lat="31.7439170" lon="35.1677540">
<ele>636.209045</ele>
<time>2015-06-26T08:44:31.001Z</time>
</trkpt>
<trkpt lat="31.7438650" lon="35.1682650">
<ele>636.300537</ele>
<time>2015-06-26T08:44:13.004Z</time>
</trkpt>
<trkpt lat="31.7436530" lon="35.1690300">
<ele>636.209045</ele>
<time>2015-06-26T08:43:50.998Z</time>
</trkpt>
<trkpt lat="31.7436350" lon="35.1697850">
<ele>637.885437</ele>
<time>2015-06-26T08:43:33.001Z</time>
</trkpt>
<trkpt lat="31.7436040" lon="35.1699450">
<ele>638.007324</ele>
<time>2015-06-26T08:43:30.003Z</time>
</trkpt>
<trkpt lat="31.7435550" lon="35.1699650">
<ele>637.885437</ele>
<time>2015-06-26T08:43:29.001Z</time>
</trkpt>
<trkpt lat="31.7435230" lon="35.1701330">
<ele>637.885437</ele>
<time>2015-06-26T08:43:26.003Z</time>
</trkpt>
<trkpt lat="31.7435750" lon="35.1705460">
<ele>638.403625</ele>
<time>2015-06-26T08:43:19.998Z</time>
</trkpt>
<trkpt lat="31.7437230" lon="35.1708400">
<ele>639.409485</ele>
<time>2015-06-26T08:43:15.997Z</time>
</trkpt>
<trkpt lat="31.7437780" lon="35.1711020">
<ele>640.506714</ele>
<time>2015-06-26T08:43:11.004Z</time>
</trkpt>
<trkpt lat="31.7437360" lon="35.1713700">
<ele>639.592285</ele>
<time>2015-06-26T08:43:04.999Z</time>
</trkpt>
<trkpt lat="31.7437530" lon="35.1718260">
<ele>638.708374</ele>
<time>2015-06-26T08:42:55.996Z</time>
</trkpt>
<trkpt lat="31.7437100" lon="35.1721090">
<ele>637.702515</ele>
<time>2015-06-26T08:42:50.000Z</time>
</trkpt>
<trkpt lat="31.7435900" lon="35.1726060">
<ele>638.007324</ele>
<time>2015-06-26T08:42:40.003Z</time>
</trkpt>
<trkpt lat="31.7436070" lon="35.1732010">
<ele>640.201904</ele>
<time>2015-06-26T08:42:25.998Z</time>
</trkpt>
<trkpt lat="31.7435630" lon="35.1735890">
<ele>641.786926</ele>
<time>2015-06-26T08:42:13.997Z</time>
</trkpt>
<trkpt lat="31.7435970" lon="35.1737030">
<ele>642.396484</ele>
<time>2015-06-26T08:42:10.999Z</time>
</trkpt>
<trkpt lat="31.7435610" lon="35.1738160">
<ele>642.701294</ele>
<time>2015-06-26T08:42:08.001Z</time>
</trkpt>
<trkpt lat="31.7436300" lon="35.1742910">
<ele>643.585205</ele>
<time>2015-06-26T08:41:56.000Z</time>
</trkpt>
<trkpt lat="31.7437380" lon="35.1746020">
<ele>644.011902</ele>
<time>2015-06-26T08:41:49.001Z</time>
</trkpt>
<trkpt lat="31.7438560" lon="35.1750920">
<ele>644.895874</ele>
<time>2015-06-26T08:36:48.001Z</time>
</trkpt>
<trkpt lat="31.7438240" lon="35.1750220">
<ele>644.408142</ele>
<time>2015-06-26T08:36:30.997Z</time>
</trkpt>
<trkpt lat="31.7439960" lon="35.1753110">
<ele>646.602661</ele>
<time>2015-06-26T08:36:10.002Z</time>
</trkpt>
<trkpt lat="31.7440720" lon="35.1754550">
<ele>647.303772</ele>
<time>2015-06-26T08:35:59.004Z</time>
</trkpt>
<trkpt lat="31.7441990" lon="35.1755900">
<ele>648.614380</ele>
<time>2015-06-26T08:35:47.996Z</time>
</trkpt>
<trkpt lat="31.7445120" lon="35.1759510">
<ele>649.010681</ele>
<time>2015-06-26T08:35:25.999Z</time>
</trkpt>
<trkpt lat="31.7447030" lon="35.1761640">
<ele>648.309570</ele>
<time>2015-06-26T08:35:08.002Z</time>
</trkpt>
<trkpt lat="31.7447920" lon="35.1762860">
<ele>647.700012</ele>
<time>2015-06-26T08:35:04.001Z</time>
</trkpt>
<trkpt lat="31.7448880" lon="35.1763820">
<ele>648.309570</ele>
<time>2015-06-26T08:34:57.003Z</time>
</trkpt>
<trkpt lat="31.7449970" lon="35.1765750">
<ele>646.785583</ele>
<time>2015-06-26T08:34:49.996Z</time>
</trkpt>
<trkpt lat="31.7451020" lon="35.1767580">
<ele>645.993103</ele>
<time>2015-06-26T08:34:46.004Z</time>
</trkpt>
<trkpt lat="31.7451340" lon="35.1769190">
<ele>644.011902</ele>
<time>2015-06-26T08:34:38.004Z</time>
</trkpt>
<trkpt lat="31.7451570" lon="35.1770530">
<ele>643.707092</ele>
<time>2015-06-26T08:34:35.999Z</time>
</trkpt>
<trkpt lat="31.7451480" lon="35.1772350">
<ele>642.701294</ele>
<time>2015-06-26T08:34:23.998Z</time>
</trkpt>
<trkpt lat="31.7452070" lon="35.1774280">
<ele>641.390625</ele>
<time>2015-06-26T08:34:15.997Z</time>
</trkpt>
<trkpt lat="31.7453470" lon="35.1774240">
<ele>648.309570</ele>
<time>2015-06-26T07:02:27.004Z</time>
</trkpt>
<trkpt lat="31.7456940" lon="35.1773250">
<ele>651.296631</ele>
<time>2015-06-26T06:57:00.999Z</time>
</trkpt>
<trkpt lat="31.7456020" lon="35.1773380">
<ele>650.504150</ele>
<time>2015-06-26T06:56:48.998Z</time>
</trkpt>
<trkpt lat="31.7455460" lon="35.1772650">
<ele>649.986023</ele>
<time>2015-06-26T06:56:44.998Z</time>
</trkpt>
<trkpt lat="31.7454860" lon="35.1769400">
<ele>650.595581</ele>
<time>2015-06-26T06:56:36.997Z</time>
</trkpt>
<trkpt lat="31.7454090" lon="35.1767800">
<ele>651.113770</ele>
<time>2015-06-26T06:56:32.004Z</time>
</trkpt>
<trkpt lat="31.7452100" lon="35.1767130">
<ele>649.406921</ele>
<time>2015-06-26T06:56:23.001Z</time>
</trkpt>
<trkpt lat="31.7450910" lon="35.1763550">
<ele>650.687073</ele>
<time>2015-06-26T06:56:13.998Z</time>
</trkpt>
<trkpt lat="31.7449110" lon="35.1761220">
<ele>651.113770</ele>
<time>2015-06-26T06:56:06.999Z</time>
</trkpt>
<trkpt lat="31.7445260" lon="35.1756710">
<ele>652.211060</ele>
<time>2015-06-26T06:55:48.000Z</time>
</trkpt>
<trkpt lat="31.7443850" lon="35.1756510">
<ele>650.687073</ele>
<time>2015-06-26T06:55:45.002Z</time>
</trkpt>
<trkpt lat="31.7443300" lon="35.1757010">
<ele>649.589722</ele>
<time>2015-06-26T06:55:44.000Z</time>
</trkpt>
<trkpt lat="31.7441820" lon="35.1755690">
<ele>648.492493</ele>
<time>2015-06-26T06:55:39.999Z</time>
</trkpt>
<trkpt lat="31.7439360" lon="35.1752000">
<ele>645.993103</ele>
<time>2015-06-26T06:55:31.999Z</time>
</trkpt>
<trkpt lat="31.7436890" lon="35.1747390">
<ele>643.890015</ele>
<time>2015-06-26T06:55:19.998Z</time>
</trkpt>
<trkpt lat="31.7435070" lon="35.1739340">
<ele>642.792664</ele>
<time>2015-06-26T06:54:59.003Z</time>
</trkpt>
<trkpt lat="31.7434990" lon="35.1737870">
<ele>642.487915</ele>
<time>2015-06-26T06:54:55.996Z</time>
</trkpt>
<trkpt lat="31.7436010" lon="35.1725230">
<ele>637.885437</ele>
<time>2015-06-26T06:54:21.997Z</time>
</trkpt>
<trkpt lat="31.7436130" lon="35.1720950">
<ele>636.910095</ele>
<time>2015-06-26T06:54:13.003Z</time>
</trkpt>
<trkpt lat="31.7437090" lon="35.1715530">
<ele>639.013184</ele>
<time>2015-06-26T06:54:00.000Z</time>
</trkpt>
<trkpt lat="31.7437330" lon="35.1711820">
<ele>639.805725</ele>
<time>2015-06-26T06:53:50.997Z</time>
</trkpt>
<trkpt lat="31.7435900" lon="35.1701820">
<ele>638.190247</ele>
<time>2015-06-26T06:53:27.997Z</time>
</trkpt>
<trkpt lat="31.7436050" lon="35.1694680">
<ele>637.397766</ele>
<time>2015-06-26T06:53:15.003Z</time>
</trkpt>
<trkpt lat="31.7436710" lon="35.1690990">
<ele>636.391907</ele>
<time>2015-06-26T06:53:06.000Z</time>
</trkpt>
<trkpt lat="31.7438640" lon="35.1684050">
<ele>636.605286</ele>
<time>2015-06-26T06:52:51.001Z</time>
</trkpt>
<trkpt lat="31.7439250" lon="35.1669180">
<ele>634.105896</ele>
<time>2015-06-26T06:52:17.996Z</time>
</trkpt>
<trkpt lat="31.7438910" lon="35.1665970">
<ele>632.002808</ele>
<time>2015-06-26T06:52:09.002Z</time>
</trkpt>
<trkpt lat="31.7440050" lon="35.1662170">
<ele>632.399048</ele>
<time>2015-06-26T06:51:54.996Z</time>
</trkpt>
<trkpt lat="31.7440590" lon="35.1658970">
<ele>631.606567</ele>
<time>2015-06-26T06:51:46.002Z</time>
</trkpt>
<trkpt lat="31.7442880" lon="35.1653230">
<ele>631.515076</ele>
<time>2015-06-26T06:51:30.001Z</time>
</trkpt>
<trkpt lat="31.7446550" lon="35.1648930">
<ele>631.606567</ele>
<time>2015-06-26T06:51:14.000Z</time>
</trkpt>
<trkpt lat="31.7451340" lon="35.1644600">
<ele>631.515076</ele>
<time>2015-06-26T06:50:56.003Z</time>
</trkpt>
<trkpt lat="31.7457070" lon="35.1637830">
<ele>624.809509</ele>
<time>2015-06-26T06:50:29.996Z</time>
</trkpt>
<trkpt lat="31.7459890" lon="35.1636450">
<ele>627.004089</ele>
<time>2015-06-26T06:50:22.004Z</time>
</trkpt>
<trkpt lat="31.7461370" lon="35.1635290">
<ele>627.308899</ele>
<time>2015-06-26T06:50:17.002Z</time>
</trkpt>
<trkpt lat="31.7463940" lon="35.1632190">
<ele>626.790710</ele>
<time>2015-06-26T06:50:05.001Z</time>
</trkpt>
<trkpt lat="31.7467170" lon="35.1624940">
<ele>623.986572</ele>
<time>2015-06-26T06:49:44.999Z</time>
</trkpt>
<trkpt lat="31.7470790" lon="35.1619780">
<ele>621.791992</ele>
<time>2015-06-26T06:49:28.004Z</time>
</trkpt>
<trkpt lat="31.7473700" lon="35.1617820">
<ele>624.900940</ele>
<time>2015-06-26T06:49:19.001Z</time>
</trkpt>
<trkpt lat="31.7480580" lon="35.1615440">
<ele>634.593628</ele>
<time>2015-06-26T06:48:54.999Z</time>
</trkpt>
<trkpt lat="31.7483130" lon="35.1613980">
<ele>638.007324</ele>
<time>2015-06-26T06:48:45.996Z</time>
</trkpt>
<trkpt lat="31.7482490" lon="35.1611680">
<ele>635.599426</ele>
<time>2015-06-26T06:48:41.996Z</time>
</trkpt>
<trkpt lat="31.7478570" lon="35.1607350">
<ele>627.400269</ele>
<time>2015-06-26T06:48:30.997Z</time>
</trkpt>
<trkpt lat="31.7478260" lon="35.1606000">
<ele>626.790710</ele>
<time>2015-06-26T06:48:27.999Z</time>
</trkpt>
<trkpt lat="31.7478680" lon="35.1603310">
<ele>627.308899</ele>
<time>2015-06-26T06:48:22.003Z</time>
</trkpt>
<trkpt lat="31.7479430" lon="35.1601490">
<ele>628.497620</ele>
<time>2015-06-26T06:48:17.001Z</time>
</trkpt>
<trkpt lat="31.7483940" lon="35.1597800">
<ele>638.312134</ele>
<time>2015-06-26T06:47:55.003Z</time>
</trkpt>
<trkpt lat="31.7484730" lon="35.1596680">
<ele>640.384827</ele>
<time>2015-06-26T06:47:48.998Z</time>
</trkpt>
<trkpt lat="31.7484710" lon="35.1596110">
<ele>640.598145</ele>
<time>2015-06-26T06:47:47.003Z</time>
</trkpt>
<trkpt lat="31.7483380" lon="35.1593190">
<ele>641.299194</ele>
<time>2015-06-26T06:47:38.000Z</time>
</trkpt>
<trkpt lat="31.7480010" lon="35.1589850">
<ele>636.696716</ele>
<time>2015-06-26T06:47:25.999Z</time>
</trkpt>
<trkpt lat="31.7476570" lon="35.1588130">
<ele>631.210266</ele>
<time>2015-06-26T06:47:16.002Z</time>
</trkpt>
<trkpt lat="31.7475690" lon="35.1587270">
<ele>629.991089</ele>
<time>2015-06-26T06:47:12.002Z</time>
</trkpt>
<trkpt lat="31.7473350" lon="35.1582990">
<ele>626.607849</ele>
<time>2015-06-26T06:46:46.998Z</time>
</trkpt>
<trkpt lat="31.7473860" lon="35.1578330">
<ele>630.295898</ele>
<time>2015-06-26T06:46:33.001Z</time>
</trkpt>
<trkpt lat="31.7476590" lon="35.1574510">
<ele>643.006104</ele>
<time>2015-06-26T06:46:19.998Z</time>
</trkpt>
<trkpt lat="31.7475940" lon="35.1573410">
<ele>643.707092</ele>
<time>2015-06-26T06:46:15.997Z</time>
</trkpt>
<trkpt lat="31.7475290" lon="35.1572950">
<ele>643.188965</ele>
<time>2015-06-26T06:46:12.999Z</time>
</trkpt>
<trkpt lat="31.7470180" lon="35.1571620">
<ele>634.197327</ele>
<time>2015-06-26T06:45:55.996Z</time>
</trkpt>
<trkpt lat="31.7468650" lon="35.1570110">
<ele>633.892517</ele>
<time>2015-06-26T06:45:48.997Z</time>
</trkpt>
<trkpt lat="31.7467750" lon="35.1567700">
<ele>638.007324</ele>
<time>2015-06-26T06:45:40.003Z</time>
</trkpt>
<trkpt lat="31.7466760" lon="35.1566080">
<ele>639.988525</ele>
<time>2015-06-26T06:45:31.000Z</time>
</trkpt>
<trkpt lat="31.7461170" lon="35.1561380">
<ele>639.409485</ele>
<time>2015-06-26T06:45:09.003Z</time>
</trkpt>
<trkpt lat="31.7459600" lon="35.1560610">
<ele>637.092957</ele>
<time>2015-06-26T06:45:01.996Z</time>
</trkpt>
<trkpt lat="31.7458060" lon="35.1558760">
<ele>638.007324</ele>
<time>2015-06-26T06:44:54.004Z</time>
</trkpt>
<trkpt lat="31.7454480" lon="35.1556340">
<ele>634.593628</ele>
<time>2015-06-26T06:44:42.996Z</time>
</trkpt>
<trkpt lat="31.7452710" lon="35.1553750">
<ele>637.306274</ele>
<time>2015-06-26T06:44:38.003Z</time>
</trkpt>
<trkpt lat="31.7451760" lon="35.1553080">
<ele>636.209045</ele>
<time>2015-06-26T06:44:34.996Z</time>
</trkpt>
<trkpt lat="31.7447890" lon="35.1548700">
<ele>632.612427</ele>
<time>2015-06-26T06:44:18.001Z</time>
</trkpt>
<trkpt lat="31.7445720" lon="35.1547020">
<ele>628.406128</ele>
<time>2015-06-26T06:44:04.998Z</time>
</trkpt>
<trkpt lat="31.7444180" lon="35.1544860">
<ele>627.308899</ele>
<time>2015-06-26T06:43:56.997Z</time>
</trkpt>
<trkpt lat="31.7443410" lon="35.1539230">
<ele>630.814087</ele>
<time>2015-06-26T06:43:44.003Z</time>
</trkpt>
<trkpt lat="31.7443470" lon="35.1537540">
<ele>632.307617</ele>
<time>2015-06-26T06:43:40.996Z</time>
</trkpt>
<trkpt lat="31.7445590" lon="35.1532370">
<ele>648.614380</ele>
<time>2015-06-26T06:43:24.001Z</time>
</trkpt>
<trkpt lat="31.7445050" lon="35.1531460">
<ele>650.808960</ele>
<time>2015-06-26T06:43:20.001Z</time>
</trkpt>
<trkpt lat="31.7444030" lon="35.1530860">
<ele>651.692932</ele>
<time>2015-06-26T06:43:17.003Z</time>
</trkpt>
<trkpt lat="31.7442220" lon="35.1530600">
<ele>650.900391</ele>
<time>2015-06-26T06:43:10.004Z</time>
</trkpt>
<trkpt lat="31.7438890" lon="35.1531740">
<ele>644.987305</ele>
<time>2015-06-26T06:43:01.001Z</time>
</trkpt>
<trkpt lat="31.7438120" lon="35.1531590">
<ele>644.804382</ele>
<time>2015-06-26T06:42:58.997Z</time>
</trkpt>
<trkpt lat="31.7436420" lon="35.1532320">
<ele>641.390625</ele>
<time>2015-06-26T06:42:57.001Z</time>
</trkpt>
<trkpt lat="31.7433590" lon="35.1532630">
<ele>638.403625</ele>
<time>2015-06-26T06:42:54.003Z</time>
</trkpt>
<trkpt lat="31.7433190" lon="35.1532080">
<ele>639.500916</ele>
<time>2015-06-26T06:42:53.001Z</time>
</trkpt>
<trkpt lat="31.7431100" lon="35.1531560">
<ele>639.196106</ele>
<time>2015-06-26T06:42:47.998Z</time>
</trkpt>
<trkpt lat="31.7425040" lon="35.1530710">
<ele>636.300537</ele>
<time>2015-06-26T06:42:28.999Z</time>
</trkpt>
<trkpt lat="31.7422590" lon="35.1528880">
<ele>639.104675</ele>
<time>2015-06-26T06:42:20.998Z</time>
</trkpt>
<trkpt lat="31.7420820" lon="35.1528060">
<ele>639.409485</ele>
<time>2015-06-26T06:42:16.998Z</time>
</trkpt>
<trkpt lat="31.7417250" lon="35.1528030">
<ele>633.313477</ele>
<time>2015-06-26T06:42:08.004Z</time>
</trkpt>
<trkpt lat="31.7414650" lon="35.1527270">
<ele>630.204529</ele>
<time>2015-06-26T06:42:00.996Z</time>
</trkpt>
<trkpt lat="31.7412140" lon="35.1525220">
<ele>629.411987</ele>
<time>2015-06-26T06:41:51.000Z</time>
</trkpt>
<trkpt lat="31.7410020" lon="35.1522850">
<ele>629.503479</ele>
<time>2015-06-26T06:41:40.001Z</time>
</trkpt>
<trkpt lat="31.7408460" lon="35.1521860">
<ele>628.009888</ele>
<time>2015-06-26T06:41:29.996Z</time>
</trkpt>
<trkpt lat="31.7407400" lon="35.1521720">
<ele>626.089722</ele>
<time>2015-06-26T06:41:22.004Z</time>
</trkpt>
<trkpt lat="31.7406360" lon="35.1522160">
<ele>623.285522</ele>
<time>2015-06-26T06:41:15.999Z</time>
</trkpt>
<trkpt lat="31.7405210" lon="35.1521780">
<ele>621.609131</ele>
<time>2015-06-26T06:41:11.999Z</time>
</trkpt>
<trkpt lat="31.7401510" lon="35.1516990">
<ele>620.694702</ele>
<time>2015-06-26T06:40:58.996Z</time>
</trkpt>
<trkpt lat="31.7399220" lon="35.1515910">
<ele>616.915222</ele>
<time>2015-06-26T06:40:48.999Z</time>
</trkpt>
<trkpt lat="31.7398330" lon="35.1514930">
<ele>616.092285</ele>
<time>2015-06-26T06:40:43.003Z</time>
</trkpt>
<trkpt lat="31.7395920" lon="35.1508960">
<ele>618.286804</ele>
<time>2015-06-26T06:40:13.999Z</time>
</trkpt>
<trkpt lat="31.7395410" lon="35.1508330">
<ele>618.103943</ele>
<time>2015-06-26T06:40:08.996Z</time>
</trkpt>
<trkpt lat="31.7391330" lon="35.1505900">
<ele>611.489746</ele>
<time>2015-06-26T06:39:49.003Z</time>
</trkpt>
<trkpt lat="31.7388380" lon="35.1504920">
<ele>604.906067</ele>
<time>2015-06-26T06:39:23.999Z</time>
</trkpt>
<trkpt lat="31.7386690" lon="35.1503650">
<ele>601.797119</ele>
<time>2015-06-26T06:39:10.002Z</time>
</trkpt>
<trkpt lat="31.7385080" lon="35.1500960">
<ele>599.297729</ele>
<time>2015-06-26T06:38:51.003Z</time>
</trkpt>
<trkpt lat="31.7384360" lon="35.1498110">
<ele>597.895691</ele>
<time>2015-06-26T06:38:33.999Z</time>
</trkpt>
<trkpt lat="31.7383100" lon="35.1495910">
<ele>596.310730</ele>
<time>2015-06-26T06:38:20.003Z</time>
</trkpt>
<trkpt lat="31.7383810" lon="35.1489660">
<ele>596.706970</ele>
<time>2015-06-26T06:37:57.003Z</time>
</trkpt>
<trkpt lat="31.7382630" lon="35.1487340">
<ele>595.396301</ele>
<time>2015-06-26T06:37:49.002Z</time>
</trkpt>
<trkpt lat="31.7380110" lon="35.1484180">
<ele>596.310730</ele>
<time>2015-06-26T06:37:38.997Z</time>
</trkpt>
<trkpt lat="31.7379780" lon="35.1483040">
<ele>597.103210</ele>
<time>2015-06-26T06:37:37.001Z</time>
</trkpt>
<trkpt lat="31.7378780" lon="35.1481670">
<ele>597.103210</ele>
<time>2015-06-26T06:37:34.003Z</time>
</trkpt>
<trkpt lat="31.7377670" lon="35.1478590">
<ele>600.395081</ele>
<time>2015-06-26T06:37:30.003Z</time>
</trkpt>
<trkpt lat="31.7374670" lon="35.1473440">
<ele>612.312744</ele>
<time>2015-06-26T06:37:22.002Z</time>
</trkpt>
<trkpt lat="31.7371430" lon="35.1470860">
<ele>611.489746</ele>
<time>2015-06-26T06:37:14.002Z</time>
</trkpt>
<trkpt lat="31.7369600" lon="35.1469610">
<ele>611.093506</ele>
<time>2015-06-26T06:37:10.001Z</time>
</trkpt>
<trkpt lat="31.7366520" lon="35.1469530">
<ele>602.894409</ele>
<time>2015-06-26T06:37:03.996Z</time>
</trkpt>
<trkpt lat="31.7365070" lon="35.1468730">
<ele>600.608398</ele>
<time>2015-06-26T06:36:59.996Z</time>
</trkpt>
<trkpt lat="31.7363220" lon="35.1468280">
<ele>595.914490</ele>
<time>2015-06-26T06:36:55.996Z</time>
</trkpt>
<trkpt lat="31.7362540" lon="35.1467660">
<ele>594.695251</ele>
<time>2015-06-26T06:36:54.000Z</time>
</trkpt>
<trkpt lat="31.7360490" lon="35.1464930">
<ele>597.987122</ele>
<time>2015-06-26T06:36:48.004Z</time>
</trkpt>
<trkpt lat="31.7359730" lon="35.1460420">
<ele>603.504028</ele>
<time>2015-06-26T06:36:40.003Z</time>
</trkpt>
<trkpt lat="31.7358980" lon="35.1458400">
<ele>606.308167</ele>
<time>2015-06-26T06:36:36.003Z</time>
</trkpt>
<trkpt lat="31.7355540" lon="35.1452900">
<ele>605.607117</ele>
<time>2015-06-26T06:36:27.000Z</time>
</trkpt>
<trkpt lat="31.7351790" lon="35.1449470">
<ele>604.113586</ele>
<time>2015-06-26T06:36:18.999Z</time>
</trkpt>
<trkpt lat="31.7348240" lon="35.1447870">
<ele>595.091553</ele>
<time>2015-06-26T06:36:10.999Z</time>
</trkpt>
<trkpt lat="31.7347610" lon="35.1447120">
<ele>593.506531</ele>
<time>2015-06-26T06:36:09.003Z</time>
</trkpt>
<trkpt lat="31.7347050" lon="35.1445990">
<ele>592.104492</ele>
<time>2015-06-26T06:36:06.998Z</time>
</trkpt>
<trkpt lat="31.7346700" lon="35.1442920">
<ele>592.409302</ele>
<time>2015-06-26T06:36:01.996Z</time>
</trkpt>
<trkpt lat="31.7345490" lon="35.1439900">
<ele>589.696533</ele>
<time>2015-06-26T06:35:57.002Z</time>
</trkpt>
<trkpt lat="31.7344760" lon="35.1433490">
<ele>592.409302</ele>
<time>2015-06-26T06:35:46.003Z</time>
</trkpt>
<trkpt lat="31.7343780" lon="35.1429660">
<ele>592.805542</ele>
<time>2015-06-26T06:35:38.996Z</time>
</trkpt>
<trkpt lat="31.7343640" lon="35.1428000">
<ele>594.085693</ele>
<time>2015-06-26T06:35:35.998Z</time>
</trkpt>
<trkpt lat="31.7341910" lon="35.1424730">
<ele>592.896973</ele>
<time>2015-06-26T06:35:30.002Z</time>
</trkpt>
<trkpt lat="31.7341180" lon="35.1420540">
<ele>593.811340</ele>
<time>2015-06-26T06:35:23.997Z</time>
</trkpt>
<trkpt lat="31.7339840" lon="35.1416640">
<ele>596.097351</ele>
<time>2015-06-26T06:35:18.001Z</time>
</trkpt>
<trkpt lat="31.7339720" lon="35.1415380">
<ele>597.987122</ele>
<time>2015-06-26T06:35:15.996Z</time>
</trkpt>
<trkpt lat="31.7336210" lon="35.1408330">
<ele>598.109070</ele>
<time>2015-06-26T06:35:00.004Z</time>
</trkpt>
<trkpt lat="31.7335260" lon="35.1405100">
<ele>600.486450</ele>
<time>2015-06-26T06:32:14.004Z</time>
</trkpt>
<trkpt lat="31.7333840" lon="35.1403020">
<ele>596.188782</ele>
<time>2015-06-26T06:32:07.999Z</time>
</trkpt>
<trkpt lat="31.7332970" lon="35.1402720">
<ele>593.811340</ele>
<time>2015-06-26T06:30:48.001Z</time>
</trkpt>
<trkpt lat="31.7331530" lon="35.1399890">
<ele>585.795105</ele>
<time>2015-06-26T06:30:37.002Z</time>
</trkpt>
<trkpt lat="31.7330280" lon="35.1398380">
<ele>581.314575</ele>
<time>2015-06-26T06:30:30.004Z</time>
</trkpt>
<trkpt lat="31.7329970" lon="35.1397320">
<ele>579.211426</ele>
<time>2015-06-26T06:30:26.997Z</time>
</trkpt>
<trkpt lat="31.7330620" lon="35.1396170">
<ele>578.114136</ele>
<time>2015-06-26T06:30:22.003Z</time>
</trkpt>
<trkpt lat="31.7332860" lon="35.1395120">
<ele>579.607666</ele>
<time>2015-06-26T06:30:10.002Z</time>
</trkpt>
<trkpt lat="31.7334410" lon="35.1394920">
<ele>580.887878</ele>
<time>2015-06-26T06:30:02.002Z</time>
</trkpt>
<trkpt lat="31.7336460" lon="35.1395250">
<ele>583.204346</ele>
<time>2015-06-26T06:29:50.001Z</time>
</trkpt>
<trkpt lat="31.7338450" lon="35.1394890">
<ele>584.514954</ele>
<time>2015-06-26T06:29:42.000Z</time>
</trkpt>
<trkpt lat="31.7344170" lon="35.1392940">
<ele>585.002625</ele>
<time>2015-06-26T06:29:16.996Z</time>
</trkpt>
<trkpt lat="31.7348910" lon="35.1391740">
<ele>585.002625</ele>
<time>2015-06-26T06:29:05.004Z</time>
</trkpt>
<trkpt lat="31.7352520" lon="35.1391480">
<ele>586.587585</ele>
<time>2015-06-26T06:27:52.004Z</time>
</trkpt>
<trkpt lat="31.7356260" lon="35.1390710">
<ele>585.795105</ele>
<time>2015-06-26T06:27:43.001Z</time>
</trkpt>
<trkpt lat="31.7361690" lon="35.1390460">
<ele>587.806824</ele>
<time>2015-06-26T06:27:31.000Z</time>
</trkpt>
<trkpt lat="31.7366730" lon="35.1389350">
<ele>591.403442</ele>
<time>2015-06-26T06:27:20.002Z</time>
</trkpt>
<trkpt lat="31.7369630" lon="35.1389640">
<ele>598.992920</ele>
<time>2015-06-26T06:27:13.997Z</time>
</trkpt>
<trkpt lat="31.7375860" lon="35.1389020">
<ele>612.190796</ele>
<time>2015-06-26T06:27:02.998Z</time>
</trkpt>
<trkpt lat="31.7381540" lon="35.1387790">
<ele>627.308899</ele>
<time>2015-06-26T06:26:50.004Z</time>
</trkpt>
<trkpt lat="31.7381750" lon="35.1386840">
<ele>627.400269</ele>
<time>2015-06-26T06:26:46.003Z</time>
</trkpt>
<trkpt lat="31.7381590" lon="35.1385610">
<ele>626.394531</ele>
<time>2015-06-26T06:26:42.003Z</time>
</trkpt>
<trkpt lat="31.7380550" lon="35.1383690">
<ele>620.694702</ele>
<time>2015-06-26T06:26:35.998Z</time>
</trkpt>
<trkpt lat="31.7379470" lon="35.1378720">
<ele>611.184937</ele>
<time>2015-06-26T06:26:27.997Z</time>
</trkpt>
<trkpt lat="31.7379650" lon="35.1375050">
<ele>606.795837</ele>
<time>2015-06-26T06:26:23.004Z</time>
</trkpt>
<trkpt lat="31.7381870" lon="35.1366460">
<ele>615.513123</ele>
<time>2015-06-26T06:26:11.003Z</time>
</trkpt>
<trkpt lat="31.7383100" lon="35.1360330">
<ele>623.102661</ele>
<time>2015-06-26T06:26:03.002Z</time>
</trkpt>
<trkpt lat="31.7383620" lon="35.1358870">
<ele>626.607849</ele>
<time>2015-06-26T06:26:00.997Z</time>
</trkpt>
<trkpt lat="31.7383820" lon="35.1356730">
<ele>628.314697</ele>
<time>2015-06-26T06:25:57.999Z</time>
</trkpt>
<trkpt lat="31.7384220" lon="35.1347380">
<ele>635.812805</ele>
<time>2015-06-26T06:25:47.001Z</time>
</trkpt>
<trkpt lat="31.7383720" lon="35.1345770">
<ele>634.197327</ele>
<time>2015-06-26T06:25:44.996Z</time>
</trkpt>
<trkpt lat="31.7384150" lon="35.1336370">
<ele>643.493774</ele>
<time>2015-06-26T06:25:35.000Z</time>
</trkpt>
<trkpt lat="31.7384040" lon="35.1331840">
<ele>643.798523</ele>
<time>2015-06-26T06:25:29.004Z</time>
</trkpt>
<trkpt lat="31.7384680" lon="35.1329860">
<ele>647.395203</ele>
<time>2015-06-26T06:25:25.997Z</time>
</trkpt>
<trkpt lat="31.7385040" lon="35.1326970">
<ele>648.492493</ele>
<time>2015-06-26T06:25:22.999Z</time>
</trkpt>
<trkpt lat="31.7384950" lon="35.1325100">
<ele>647.608521</ele>
<time>2015-06-26T06:25:21.003Z</time>
</trkpt>
<trkpt lat="31.7386380" lon="35.1322610">
<ele>652.211060</ele>
<time>2015-06-26T06:25:17.003Z</time>
</trkpt>
<trkpt lat="31.7388530" lon="35.1320650">
<ele>656.386780</ele>
<time>2015-06-26T06:25:13.002Z</time>
</trkpt>
<trkpt lat="31.7390340" lon="35.1319410">
<ele>656.996399</ele>
<time>2015-06-26T06:25:10.004Z</time>
</trkpt>
<trkpt lat="31.7392210" lon="35.1318790">
<ele>658.489868</ele>
<time>2015-06-26T06:25:06.997Z</time>
</trkpt>
<trkpt lat="31.7394460" lon="35.1319110">
<ele>662.604675</ele>
<time>2015-06-26T06:25:02.997Z</time>
</trkpt>
<trkpt lat="31.7396610" lon="35.1320120">
<ele>666.902405</ele>
<time>2015-06-26T06:24:58.997Z</time>
</trkpt>
<trkpt lat="31.7400530" lon="35.1322950">
<ele>672.785034</ele>
<time>2015-06-26T06:24:49.000Z</time>
</trkpt>
<trkpt lat="31.7402220" lon="35.1325390">
<ele>678.698120</ele>
<time>2015-06-26T06:23:13.001Z</time>
</trkpt>
<trkpt lat="31.7402880" lon="35.1326660">
<ele>681.989990</ele>
<time>2015-06-26T06:23:10.003Z</time>
</trkpt>
<trkpt lat="31.7405080" lon="35.1328680">
<ele>686.104797</ele>
<time>2015-06-26T06:23:05.001Z</time>
</trkpt>
<trkpt lat="31.7408030" lon="35.1332680">
<ele>691.012085</ele>
<time>2015-06-26T06:22:58.002Z</time>
</trkpt>
<trkpt lat="31.7411900" lon="35.1336800">
<ele>699.089294</ele>
<time>2015-06-26T06:22:48.999Z</time>
</trkpt>
<trkpt lat="31.7416070" lon="35.1339110">
<ele>699.394104</ele>
<time>2015-06-26T06:22:42.001Z</time>
</trkpt>
<trkpt lat="31.7418410" lon="35.1339700">
<ele>697.504272</ele>
<time>2015-06-26T06:22:36.998Z</time>
</trkpt>
<trkpt lat="31.7422990" lon="35.1341830">
<ele>697.595764</ele>
<time>2015-06-26T06:22:28.998Z</time>
</trkpt>
<trkpt lat="31.7426350" lon="35.1343700">
<ele>700.186523</ele>
<time>2015-06-26T06:22:23.002Z</time>
</trkpt>
<trkpt lat="31.7431770" lon="35.1347860">
<ele>708.903870</ele>
<time>2015-06-26T06:22:11.001Z</time>
</trkpt>
<trkpt lat="31.7435310" lon="35.1350550">
<ele>712.988159</ele>
<time>2015-06-26T06:21:59.000Z</time>
</trkpt>
<trkpt lat="31.7437384" lon="35.1351728">
<ele>716.889587</ele>
<time>2015-06-26T06:21:56.002Z</time>
</trkpt>
<trkpt lat="31.7439893" lon="35.1353391">
<ele>719.510925</ele>
<time>2015-06-26T06:21:52.001Z</time>
</trkpt>
<trkpt lat="31.7443497" lon="35.1354249">
<ele>720.608154</ele>
<time>2015-06-26T06:21:45.996Z</time>
</trkpt>
<trkpt lat="31.7446290" lon="35.1354830">
<ele>717.499207</ele>
<time>2015-06-26T06:21:41.003Z</time>
</trkpt>
<trkpt lat="31.7447600" lon="35.1355520">
<ele>718.992676</ele>
<time>2015-06-26T06:21:34.004Z</time>
</trkpt>
<trkpt lat="31.7447610" lon="35.1356310">
<ele>720.791077</ele>
<time>2015-06-26T06:21:29.002Z</time>
</trkpt>
<trkpt lat="31.7446910" lon="35.1356540">
<ele>721.309204</ele>
<time>2015-06-26T06:21:26.004Z</time>
</trkpt>
<trkpt lat="31.7442040" lon="35.1356150">
<ele>723.290405</ele>
<time>2015-06-26T06:21:18.003Z</time>
</trkpt>
<trkpt lat="31.7437600" lon="35.1355450">
<ele>724.601074</ele>
<time>2015-06-26T06:21:11.998Z</time>
</trkpt>
<trkpt lat="31.7434830" lon="35.1354830">
<ele>725.210632</ele>
<time>2015-06-26T06:21:07.998Z</time>
</trkpt>
<trkpt lat="31.7431700" lon="35.1354600">
<ele>727.191833</ele>
<time>2015-06-26T06:21:03.997Z</time>
</trkpt>
<trkpt lat="31.7423750" lon="35.1353440">
<ele>730.605591</ele>
<time>2015-06-26T06:20:52.999Z</time>
</trkpt>
<trkpt lat="31.7420090" lon="35.1352590">
<ele>731.306641</ele>
<time>2015-06-26T06:20:47.996Z</time>
</trkpt>
<trkpt lat="31.7411620" lon="35.1352430">
<ele>734.385071</ele>
<time>2015-06-26T06:20:36.997Z</time>
</trkpt>
<trkpt lat="31.7407350" lon="35.1351880">
<ele>729.508301</ele>
<time>2015-06-26T06:20:29.999Z</time>
</trkpt>
<trkpt lat="31.7406360" lon="35.1352790">
<ele>730.087463</ele>
<time>2015-06-26T06:19:04.999Z</time>
</trkpt>
<trkpt lat="31.7406790" lon="35.1354170">
<ele>732.800171</ele>
<time>2015-06-26T06:18:56.998Z</time>
</trkpt>
<trkpt lat="31.7412820" lon="35.1356160">
<ele>742.005066</ele>
<time>2015-06-26T06:18:41.999Z</time>
</trkpt>
<trkpt lat="31.7414750" lon="35.1357500">
<ele>743.986267</ele>
<time>2015-06-26T06:18:37.999Z</time>
</trkpt>
<trkpt lat="31.7420310" lon="35.1359340">
<ele>748.009705</ele>
<time>2015-06-26T06:18:28.002Z</time>
</trkpt>
<trkpt lat="31.7425850" lon="35.1362550">
<ele>754.288574</ele>
<time>2015-06-26T06:18:20.002Z</time>
</trkpt>
<trkpt lat="31.7429770" lon="35.1363780">
<ele>755.690674</ele>
<time>2015-06-26T06:18:14.999Z</time>
</trkpt>
<trkpt lat="31.7431140" lon="35.1364630">
<ele>756.696533</ele>
<time>2015-06-26T06:18:13.003Z</time>
</trkpt>
<trkpt lat="31.7434140" lon="35.1366980">
<ele>760.506531</ele>
<time>2015-06-26T06:18:08.001Z</time>
</trkpt>
<trkpt lat="31.7436460" lon="35.1369500">
<ele>765.809998</ele>
<time>2015-06-26T06:18:02.998Z</time>
</trkpt>
<trkpt lat="31.7438760" lon="35.1370640">
<ele>767.699768</ele>
<time>2015-06-26T06:17:58.998Z</time>
</trkpt>
<trkpt lat="31.7442770" lon="35.1370740">
<ele>765.505188</ele>
<time>2015-06-26T06:17:51.999Z</time>
</trkpt>
<trkpt lat="31.7445720" lon="35.1370420">
<ele>762.609619</ele>
<time>2015-06-26T06:17:46.997Z</time>
</trkpt>
<trkpt lat="31.7448880" lon="35.1370770">
<ele>764.103088</ele>
<time>2015-06-26T06:17:41.001Z</time>
</trkpt>
<trkpt lat="31.7457930" lon="35.1373520">
<ele>775.807434</ele>
<time>2015-06-26T06:17:23.004Z</time>
</trkpt>
<trkpt lat="31.7463540" lon="35.1376140">
<ele>785.103882</ele>
<time>2015-06-26T06:17:00.997Z</time>
</trkpt>
<trkpt lat="31.7467440" lon="35.1376560">
<ele>784.311340</ele>
<time>2015-06-26T06:16:39.000Z</time>
</trkpt>
<trkpt lat="31.7469290" lon="35.1377020">
<ele>784.585693</ele>
<time>2015-06-26T06:16:33.004Z</time>
</trkpt>
<trkpt lat="31.7470963" lon="35.1377638">
<ele>783.092163</ele>
<time>2015-06-26T06:16:28.001Z</time>
</trkpt>
<trkpt lat="31.7473690" lon="35.1378140">
<ele>786.993591</ele>
<time>2015-06-26T06:16:21.996Z</time>
</trkpt>
<trkpt lat="31.7475090" lon="35.1378240">
<ele>787.298401</ele>
<time>2015-06-26T06:16:13.002Z</time>
</trkpt>
<trkpt lat="31.7479677" lon="35.1375224">
<ele>781.903442</ele>
<time>2015-06-26T06:16:03.999Z</time>
</trkpt>
<trkpt lat="31.7486830" lon="35.1370900">
<ele>787.085083</ele>
<time>2015-06-26T06:15:47.998Z</time>
</trkpt>
<trkpt lat="31.7490820" lon="35.1370240">
<ele>792.601868</ele>
<time>2015-06-26T06:15:39.004Z</time>
</trkpt>
<trkpt lat="31.7492496" lon="35.1370181">
<ele>793.912537</ele>
<time>2015-06-26T06:15:35.004Z</time>
</trkpt>
<trkpt lat="31.7494412" lon="35.1370235">
<ele>795.406128</ele>
<time>2015-06-26T06:15:30.001Z</time>
</trkpt>
<trkpt lat="31.7497240" lon="35.1369830">
<ele>801.502136</ele>
<time>2015-06-26T06:15:19.996Z</time>
</trkpt>
<trkpt lat="31.7500710" lon="35.1368320">
<ele>808.085754</ele>
<time>2015-06-26T06:15:12.004Z</time>
</trkpt>
<trkpt lat="31.7501250" lon="35.1367480">
<ele>809.304932</ele>
<time>2015-06-26T06:15:09.999Z</time>
</trkpt>
<trkpt lat="31.7501510" lon="35.1365560">
<ele>810.493713</ele>
<time>2015-06-26T06:15:05.999Z</time>
</trkpt>
<trkpt lat="31.7500820" lon="35.1361860">
<ele>811.712891</ele>
<time>2015-06-26T06:14:56.996Z</time>
</trkpt>
<trkpt lat="31.7500380" lon="35.1356230">
<ele>816.406799</ele>
<time>2015-06-26T06:14:37.003Z</time>
</trkpt>
<trkpt lat="31.7499970" lon="35.1355200">
<ele>817.504089</ele>
<time>2015-06-26T06:14:02.996Z</time>
</trkpt>
<trkpt lat="31.7500220" lon="35.1354460">
<ele>817.991760</ele>
<time>2015-06-26T06:13:39.003Z</time>
</trkpt>
<trkpt lat="31.7502910" lon="35.1355050">
<ele>815.705750</ele>
<time>2015-06-26T06:13:28.004Z</time>
</trkpt>
<trkpt lat="31.7504200" lon="35.1354870">
<ele>814.913330</ele>
<time>2015-06-26T06:13:20.004Z</time>
</trkpt>
<trkpt lat="31.7505030" lon="35.1354310">
<ele>814.608521</ele>
<time>2015-06-26T06:13:12.996Z</time>
</trkpt>
<trkpt lat="31.7507680" lon="35.1354230">
<ele>813.389282</ele>
<time>2015-06-26T06:13:04.996Z</time>
</trkpt>
<trkpt lat="31.7509470" lon="35.1353670">
<ele>811.408081</ele>
<time>2015-06-26T06:13:01.998Z</time>
</trkpt>
<trkpt lat="31.7512250" lon="35.1353370">
<ele>809.000122</ele>
<time>2015-06-26T06:12:52.001Z</time>
</trkpt>
<trkpt lat="31.7514250" lon="35.1352380">
<ele>806.287476</ele>
<time>2015-06-26T06:12:45.996Z</time>
</trkpt>
<trkpt lat="31.7515690" lon="35.1352280">
<ele>806.104553</ele>
<time>2015-06-26T06:12:36.000Z</time>
</trkpt>
<trkpt lat="31.7516550" lon="35.1351670">
<ele>804.397705</ele>
<time>2015-06-26T06:11:04.001Z</time>
</trkpt>
<trkpt lat="31.7515640" lon="35.1352230">
<ele>806.013062</ele>
<time>2015-06-26T06:10:57.996Z</time>
</trkpt>
<trkpt lat="31.7514080" lon="35.1351590">
<ele>804.001465</ele>
<time>2015-06-26T06:10:46.998Z</time>
</trkpt>
<trkpt lat="31.7511130" lon="35.1352780">
<ele>808.207703</ele>
<time>2015-06-26T06:10:31.999Z</time>
</trkpt>
<trkpt lat="31.7505510" lon="35.1353580">
<ele>813.602661</ele>
<time>2015-06-26T06:10:07.003Z</time>
</trkpt>
<trkpt lat="31.7504130" lon="35.1354130">
<ele>815.004700</ele>
<time>2015-06-26T06:09:59.003Z</time>
</trkpt>
<trkpt lat="31.7500440" lon="35.1353740">
<ele>817.808899</ele>
<time>2015-06-26T06:09:44.004Z</time>
</trkpt>
<trkpt lat="31.7491400" lon="35.1353430">
<ele>817.412659</ele>
<time>2015-06-26T06:09:18.999Z</time>
</trkpt>
<trkpt lat="31.7487030" lon="35.1351790">
<ele>811.194702</ele>
<time>2015-06-26T06:09:04.000Z</time>
</trkpt>
<trkpt lat="31.7486090" lon="35.1351060">
<ele>808.207703</ele>
<time>2015-06-26T06:09:01.002Z</time>
</trkpt>
<trkpt lat="31.7484970" lon="35.1348310">
<ele>804.001465</ele>
<time>2015-06-26T06:08:54.004Z</time>
</trkpt>
<trkpt lat="31.7485250" lon="35.1346370">
<ele>803.788086</ele>
<time>2015-06-26T06:08:49.001Z</time>
</trkpt>
<trkpt lat="31.7485600" lon="35.1345730">
<ele>804.214783</ele>
<time>2015-06-26T06:08:46.997Z</time>
</trkpt>
<trkpt lat="31.7487620" lon="35.1343480">
<ele>802.599365</ele>
<time>2015-06-26T06:08:38.003Z</time>
</trkpt>
<trkpt lat="31.7491370" lon="35.1341580">
<ele>801.898315</ele>
<time>2015-06-26T06:08:24.999Z</time>
</trkpt>
<trkpt lat="31.7495030" lon="35.1342040">
<ele>807.598083</ele>
<time>2015-06-26T06:08:15.003Z</time>
</trkpt>
<trkpt lat="31.7496560" lon="35.1343920">
<ele>812.810120</ele>
<time>2015-06-26T06:08:08.998Z</time>
</trkpt>
<trkpt lat="31.7496740" lon="35.1345310">
<ele>816.284912</ele>
<time>2015-06-26T06:08:06.000Z</time>
</trkpt>
<trkpt lat="31.7496510" lon="35.1346220">
<ele>818.205078</ele>
<time>2015-06-26T06:08:04.004Z</time>
</trkpt>
<trkpt lat="31.7494810" lon="35.1349500">
<ele>819.210938</ele>
<time>2015-06-26T06:07:56.004Z</time>
</trkpt>
<trkpt lat="31.7492530" lon="35.1350750">
<ele>817.290710</ele>
<time>2015-06-26T06:07:49.999Z</time>
</trkpt>
<trkpt lat="31.7489310" lon="35.1351210">
<ele>814.090271</ele>
<time>2015-06-26T06:07:41.998Z</time>
</trkpt>
<trkpt lat="31.7487720" lon="35.1350440">
<ele>811.987183</ele>
<time>2015-06-26T06:07:37.998Z</time>
</trkpt>
<trkpt lat="31.7486580" lon="35.1348840">
<ele>808.390564</ele>
<time>2015-06-26T06:07:33.997Z</time>
</trkpt>
<trkpt lat="31.7486810" lon="35.1346820">
<ele>807.902893</ele>
<time>2015-06-26T06:07:29.997Z</time>
</trkpt>
<trkpt lat="31.7487540" lon="35.1345610">
<ele>808.390564</ele>
<time>2015-06-26T06:07:26.999Z</time>
</trkpt>
<trkpt lat="31.7489520" lon="35.1344560">
<ele>807.902893</ele>
<time>2015-06-26T06:07:21.996Z</time>
</trkpt>
<trkpt lat="31.7490330" lon="35.1345420">
<ele>811.286133</ele>
<time>2015-06-26T06:07:18.998Z</time>
</trkpt>
<trkpt lat="31.7489510" lon="35.1347840">
<ele>812.505371</ele>
<time>2015-06-26T06:06:31.997Z</time>
</trkpt>
<trkpt lat="31.7488900" lon="35.1347120">
<ele>811.408081</ele>
<time>2015-06-26T06:06:19.002Z</time>
</trkpt>
<trkpt lat="31.7488310" lon="35.1347270">
<ele>810.798523</ele>
<time>2015-06-26T06:06:09.999Z</time>
</trkpt>
<trkpt lat="31.7487970" lon="35.1348270">
<ele>811.011841</ele>
<time>2015-06-26T05:58:10.998Z</time>
</trkpt>
<trkpt lat="31.7487880" lon="35.1347310">
<ele>810.310791</ele>
<time>2015-06-26T05:57:00.996Z</time>
</trkpt>
<trkpt lat="31.7488440" lon="35.1347080">
<ele>810.798523</ele>
<time>2015-06-26T05:56:56.996Z</time>
</trkpt>
<trkpt lat="31.7489070" lon="35.1348050">
<ele>812.109070</ele>
<time>2015-06-26T05:56:51.000Z</time>
</trkpt>
<trkpt lat="31.7489750" lon="35.1348050">
<ele>812.901611</ele>
<time>2015-06-26T05:56:47.000Z</time>
</trkpt>
<trkpt lat="31.7490740" lon="35.1346200">
<ele>813.114929</ele>
<time>2015-06-26T05:56:40.001Z</time>
</trkpt>
<trkpt lat="31.7490870" lon="35.1345240">
<ele>811.408081</ele>
<time>2015-06-26T05:56:37.997Z</time>
</trkpt>
<trkpt lat="31.7490040" lon="35.1344440">
<ele>808.207703</ele>
<time>2015-06-26T05:56:34.999Z</time>
</trkpt>
<trkpt lat="31.7487500" lon="35.1345460">
<ele>807.994263</ele>
<time>2015-06-26T05:56:26.998Z</time>
</trkpt>
<trkpt lat="31.7486890" lon="35.1346280">
<ele>807.811462</ele>
<time>2015-06-26T05:56:24.000Z</time>
</trkpt>
<trkpt lat="31.7486550" lon="35.1347210">
<ele>807.506653</ele>
<time>2015-06-26T05:56:21.002Z</time>
</trkpt>
<trkpt lat="31.7486620" lon="35.1348400">
<ele>808.299072</ele>
<time>2015-06-26T05:56:18.004Z</time>
</trkpt>
<trkpt lat="31.7487960" lon="35.1350190">
<ele>812.109070</ele>
<time>2015-06-26T05:56:13.001Z</time>
</trkpt>
<trkpt lat="31.7490940" lon="35.1351110">
<ele>815.797180</ele>
<time>2015-06-26T05:56:06.003Z</time>
</trkpt>
<trkpt lat="31.7493140" lon="35.1350730">
<ele>817.900269</ele>
<time>2015-06-26T05:56:01.000Z</time>
</trkpt>
<trkpt lat="31.7494930" lon="35.1349760">
<ele>819.393860</ele>
<time>2015-06-26T05:55:55.998Z</time>
</trkpt>
<trkpt lat="31.7495690" lon="35.1348820">
<ele>819.911987</ele>
<time>2015-06-26T05:55:53.000Z</time>
</trkpt>
<trkpt lat="31.7496640" lon="35.1346640">
<ele>818.205078</ele>
<time>2015-06-26T05:55:47.004Z</time>
</trkpt>
<trkpt lat="31.7496650" lon="35.1344340">
<ele>813.785461</ele>
<time>2015-06-26T05:55:42.001Z</time>
</trkpt>
<trkpt lat="31.7496340" lon="35.1343560">
<ele>812.109070</ele>
<time>2015-06-26T05:55:39.996Z</time>
</trkpt>
<trkpt lat="31.7494420" lon="35.1341710">
<ele>805.891174</ele>
<time>2015-06-26T05:55:31.996Z</time>
</trkpt>
<trkpt lat="31.7492910" lon="35.1341490">
<ele>803.513733</ele>
<time>2015-06-26T05:55:27.002Z</time>
</trkpt>
<trkpt lat="31.7490740" lon="35.1341590">
<ele>801.197327</ele>
<time>2015-06-26T05:55:20.004Z</time>
</trkpt>
<trkpt lat="31.7489000" lon="35.1342130">
<ele>800.587708</ele>
<time>2015-06-26T05:55:13.999Z</time>
</trkpt>
<trkpt lat="31.7487020" lon="35.1343240">
<ele>800.892517</ele>
<time>2015-06-26T05:55:05.998Z</time>
</trkpt>
<trkpt lat="31.7485660" lon="35.1344870">
<ele>802.203064</ele>
<time>2015-06-26T05:54:59.000Z</time>
</trkpt>
<trkpt lat="31.7484970" lon="35.1347090">
<ele>803.513733</ele>
<time>2015-06-26T05:54:52.001Z</time>
</trkpt>
<trkpt lat="31.7485330" lon="35.1349730">
<ele>805.494934</ele>
<time>2015-06-26T05:54:44.001Z</time>
</trkpt>
<trkpt lat="31.7486270" lon="35.1351110">
<ele>808.695374</ele>
<time>2015-06-26T05:54:37.996Z</time>
</trkpt>
<trkpt lat="31.7490740" lon="35.1353460">
<ele>816.803040</ele>
<time>2015-06-26T05:54:15.998Z</time>
</trkpt>
<trkpt lat="31.7491676" lon="35.1353927">
<ele>817.686951</ele>
<time>2015-06-26T05:54:10.002Z</time>
</trkpt>
<trkpt lat="31.7493220" lon="35.1353840">
<ele>819.302429</ele>
<time>2015-06-26T05:53:59.997Z</time>
</trkpt>
<trkpt lat="31.7495820" lon="35.1354140">
<ele>822.015076</ele>
<time>2015-06-26T05:53:46.000Z</time>
</trkpt>
<trkpt lat="31.7498790" lon="35.1354100">
<ele>819.485291</ele>
<time>2015-06-26T05:53:32.004Z</time>
</trkpt>
<trkpt lat="31.7500390" lon="35.1352510">
<ele>816.985901</ele>
<time>2015-06-26T05:53:13.004Z</time>
</trkpt>
<trkpt lat="31.7501830" lon="35.1349780">
<ele>813.511230</ele>
<time>2015-06-26T05:52:46.004Z</time>
</trkpt>
<trkpt lat="31.7505860" lon="35.1349170">
<ele>807.598083</ele>
<time>2015-06-26T05:52:11.004Z</time>
</trkpt>
<trkpt lat="31.7507190" lon="35.1348650">
<ele>804.702515</ele>
<time>2015-06-26T05:51:59.996Z</time>
</trkpt>
<trkpt lat="31.7507540" lon="35.1348040">
<ele>802.995605</ele>
<time>2015-06-26T05:51:55.002Z</time>
</trkpt>
<trkpt lat="31.7507450" lon="35.1346810">
<ele>801.105835</ele>
<time>2015-06-26T05:51:45.999Z</time>
</trkpt>
<trkpt lat="31.7507030" lon="35.1346170">
<ele>801.014404</ele>
<time>2015-06-26T05:51:39.001Z</time>
</trkpt>
<trkpt lat="31.7506050" lon="35.1345930">
<ele>802.812683</ele>
<time>2015-06-26T05:51:31.000Z</time>
</trkpt>
<trkpt lat="31.7503800" lon="35.1343430">
<ele>801.989746</ele>
<time>2015-06-26T05:51:01.002Z</time>
</trkpt>
<trkpt lat="31.7503220" lon="35.1342030">
<ele>799.490417</ele>
<time>2015-06-26T05:50:50.004Z</time>
</trkpt>
<trkpt lat="31.7503210" lon="35.1340750">
<ele>796.503357</ele>
<time>2015-06-26T05:50:41.001Z</time>
</trkpt>
<trkpt lat="31.7504100" lon="35.1340760">
<ele>795.497498</ele>
<time>2015-06-26T05:50:30.002Z</time>
</trkpt>
<trkpt lat="31.7507290" lon="35.1342950">
<ele>793.211487</ele>
<time>2015-06-26T05:49:57.999Z</time>
</trkpt>
<trkpt lat="31.7508620" lon="35.1343250">
<ele>790.803589</ele>
<time>2015-06-26T05:49:49.999Z</time>
</trkpt>
<trkpt lat="31.7510130" lon="35.1342420">
<ele>785.286682</ele>
<time>2015-06-26T05:49:37.004Z</time>
</trkpt>
<trkpt lat="31.7510200" lon="35.1341730">
<ele>783.488403</ele>
<time>2015-06-26T05:49:33.004Z</time>
</trkpt>
<trkpt lat="31.7509840" lon="35.1340750">
<ele>782.086304</ele>
<time>2015-06-26T05:49:26.999Z</time>
</trkpt>
<trkpt lat="31.7508000" lon="35.1339930">
<ele>784.494263</ele>
<time>2015-06-26T05:49:05.002Z</time>
</trkpt>
<trkpt lat="31.7506420" lon="35.1337620">
<ele>782.909302</ele>
<time>2015-06-26T05:48:43.998Z</time>
</trkpt>
<trkpt lat="31.7505600" lon="35.1334730">
<ele>778.093445</ele>
<time>2015-06-26T05:48:22.000Z</time>
</trkpt>
<trkpt lat="31.7505350" lon="35.1333180">
<ele>774.893066</ele>
<time>2015-06-26T05:48:05.999Z</time>
</trkpt>
<trkpt lat="31.7505060" lon="35.1331210">
<ele>770.686829</ele>
<time>2015-06-26T05:47:51.000Z</time>
</trkpt>
<trkpt lat="31.7504290" lon="35.1329170">
<ele>766.785339</ele>
<time>2015-06-26T05:47:34.999Z</time>
</trkpt>
<trkpt lat="31.7503370" lon="35.1325830">
<ele>763.005859</ele>
<time>2015-06-26T05:47:09.001Z</time>
</trkpt>
<trkpt lat="31.7503700" lon="35.1323880">
<ele>760.597900</ele>
<time>2015-06-26T05:46:57.000Z</time>
</trkpt>
<trkpt lat="31.7503690" lon="35.1321170">
<ele>757.214661</ele>
<time>2015-06-26T05:46:39.003Z</time>
</trkpt>
<trkpt lat="31.7504630" lon="35.1316340">
<ele>752.307373</ele>
<time>2015-06-26T05:46:08.996Z</time>
</trkpt>
<trkpt lat="31.7505550" lon="35.1313770">
<ele>749.411743</ele>
<time>2015-06-26T05:45:54.999Z</time>
</trkpt>
<trkpt lat="31.7506080" lon="35.1306920">
<ele>742.401367</ele>
<time>2015-06-26T05:45:14.996Z</time>
</trkpt>
<trkpt lat="31.7506760" lon="35.1305690">
<ele>741.608887</ele>
<time>2015-06-26T05:45:07.004Z</time>
</trkpt>
<trkpt lat="31.7507070" lon="35.1304010">
<ele>740.389709</ele>
<time>2015-06-26T05:45:02.002Z</time>
</trkpt>
<trkpt lat="31.7506760" lon="35.1302680">
<ele>739.688660</ele>
<time>2015-06-26T05:44:59.004Z</time>
</trkpt>
<trkpt lat="31.7505050" lon="35.1299420">
<ele>736.793030</ele>
<time>2015-06-26T05:44:50.001Z</time>
</trkpt>
<trkpt lat="31.7504650" lon="35.1296980">
<ele>735.208130</ele>
<time>2015-06-26T05:44:43.996Z</time>
</trkpt>
<trkpt lat="31.7504740" lon="35.1292100">
<ele>730.910400</ele>
<time>2015-06-26T05:44:32.997Z</time>
</trkpt>
<trkpt lat="31.7505210" lon="35.1290180">
<ele>729.599731</ele>
<time>2015-06-26T05:44:28.997Z</time>
</trkpt>
<trkpt lat="31.7510330" lon="35.1281480">
<ele>733.196411</ele>
<time>2015-06-26T05:44:01.003Z</time>
</trkpt>
<trkpt lat="31.7510050" lon="35.1279430">
<ele>732.007690</ele>
<time>2015-06-26T05:43:54.998Z</time>
</trkpt>
<trkpt lat="31.7509420" lon="35.1277650">
<ele>732.099060</ele>
<time>2015-06-26T05:43:49.996Z</time>
</trkpt>
<trkpt lat="31.7509560" lon="35.1275960">
<ele>733.592651</ele>
<time>2015-06-26T05:43:46.004Z</time>
</trkpt>
<trkpt lat="31.7511170" lon="35.1274190">
<ele>737.494080</ele>
<time>2015-06-26T05:43:37.001Z</time>
</trkpt>
<trkpt lat="31.7513510" lon="35.1273060">
<ele>739.901978</ele>
<time>2015-06-26T05:43:25.000Z</time>
</trkpt>
<trkpt lat="31.7516980" lon="35.1268940">
<ele>741.913696</ele>
<time>2015-06-26T05:43:04.999Z</time>
</trkpt>
<trkpt lat="31.7519880" lon="35.1263170">
<ele>745.997986</ele>
<time>2015-06-26T05:42:41.999Z</time>
</trkpt>
<trkpt lat="31.7522450" lon="35.1260300">
<ele>743.285339</ele>
<time>2015-06-26T05:42:25.004Z</time>
</trkpt>
<trkpt lat="31.7525130" lon="35.1255500">
<ele>740.511597</ele>
<time>2015-06-26T05:42:13.003Z</time>
</trkpt>
<trkpt lat="31.7528710" lon="35.1247560">
<ele>739.993469</ele>
<time>2015-06-26T05:41:58.998Z</time>
</trkpt>
<trkpt lat="31.7531590" lon="35.1242670">
<ele>737.585510</ele>
<time>2015-06-26T05:41:50.004Z</time>
</trkpt>
<trkpt lat="31.7532760" lon="35.1240020">
<ele>736.914917</ele>
<time>2015-06-26T05:39:43.998Z</time>
</trkpt>
<trkpt lat="31.7535070" lon="35.1233380">
<ele>733.409729</ele>
<time>2015-06-26T05:37:07.000Z</time>
</trkpt>
<trkpt lat="31.7535910" lon="35.1230980">
<ele>731.306641</ele>
<time>2015-06-26T05:33:59.996Z</time>
</trkpt>
<trkpt lat="31.7535840" lon="35.1226310">
<ele>727.892883</ele>
<time>2015-06-26T05:33:27.000Z</time>
</trkpt>
<trkpt lat="31.7536570" lon="35.1223720">
<ele>724.113342</ele>
<time>2015-06-26T05:33:08.001Z</time>
</trkpt>
<trkpt lat="31.7536760" lon="35.1221910">
<ele>722.010254</ele>
<time>2015-06-26T05:32:54.997Z</time>
</trkpt>
<trkpt lat="31.7537560" lon="35.1220720">
<ele>719.602295</ele>
<time>2015-06-26T05:32:39.998Z</time>
</trkpt>
<trkpt lat="31.7538010" lon="35.1217080">
<ele>710.092529</ele>
<time>2015-06-26T05:32:08.998Z</time>
</trkpt>
<trkpt lat="31.7537570" lon="35.1213770">
<ele>703.691772</ele>
<time>2015-06-26T05:31:44.996Z</time>
</trkpt>
<trkpt lat="31.7536640" lon="35.1211800">
<ele>700.186523</ele>
<time>2015-06-26T05:31:26.999Z</time>
</trkpt>
<trkpt lat="31.7529470" lon="35.1204530">
<ele>683.209229</ele>
<time>2015-06-26T05:30:26.001Z</time>
</trkpt>
<trkpt lat="31.7527500" lon="35.1203320">
<ele>679.612549</ele>
<time>2015-06-26T05:30:12.004Z</time>
</trkpt>
<trkpt lat="31.7521650" lon="35.1202430">
<ele>679.307739</ele>
<time>2015-06-26T05:29:37.003Z</time>
</trkpt>
<trkpt lat="31.7519260" lon="35.1201680">
<ele>680.709839</ele>
<time>2015-06-26T05:29:21.002Z</time>
</trkpt>
<trkpt lat="31.7513610" lon="35.1198850">
<ele>684.702698</ele>
<time>2015-06-26T05:28:55.004Z</time>
</trkpt>
<trkpt lat="31.7510990" lon="35.1197150">
<ele>687.598267</ele>
<time>2015-06-26T05:28:47.997Z</time>
</trkpt>
<trkpt lat="31.7507200" lon="35.1191800">
<ele>688.299316</ele>
<time>2015-06-26T05:28:24.004Z</time>
</trkpt>
<trkpt lat="31.7504010" lon="35.1185420">
<ele>686.714417</ele>
<time>2015-06-26T05:26:48.998Z</time>
</trkpt>
<trkpt lat="31.7503260" lon="35.1184500">
<ele>688.390808</ele>
<time>2015-06-26T05:26:39.002Z</time>
</trkpt>
<trkpt lat="31.7500990" lon="35.1176140">
<ele>684.397888</ele>
<time>2015-06-26T05:25:46.004Z</time>
</trkpt>
<trkpt lat="31.7499850" lon="35.1169680">
<ele>678.698120</ele>
<time>2015-06-26T05:25:04.999Z</time>
</trkpt>
<trkpt lat="31.7497690" lon="35.1163770">
<ele>677.600891</ele>
<time>2015-06-26T05:24:39.001Z</time>
</trkpt>
<trkpt lat="31.7497310" lon="35.1160060">
<ele>671.809692</ele>
<time>2015-06-26T05:24:23.000Z</time>
</trkpt>
<trkpt lat="31.7496090" lon="35.1156650">
<ele>669.310303</ele>
<time>2015-06-26T05:24:09.003Z</time>
</trkpt>
<trkpt lat="31.7495940" lon="35.1155570">
<ele>667.603455</ele>
<time>2015-06-26T05:24:05.003Z</time>
</trkpt>
<trkpt lat="31.7494880" lon="35.1152720">
<ele>665.500305</ele>
<time>2015-06-26T05:23:54.997Z</time>
</trkpt>
<trkpt lat="31.7491180" lon="35.1147890">
<ele>667.999695</ele>
<time>2015-06-26T05:23:38.996Z</time>
</trkpt>
<trkpt lat="31.7490360" lon="35.1146130">
<ele>667.298645</ele>
<time>2015-06-26T05:23:31.004Z</time>
</trkpt>
<trkpt lat="31.7489950" lon="35.1144850">
<ele>667.908264</ele>
<time>2015-06-26T05:23:24.999Z</time>
</trkpt>
<trkpt lat="31.7489700" lon="35.1142700">
<ele>668.792175</ele>
<time>2015-06-26T05:23:15.003Z</time>
</trkpt>
<trkpt lat="31.7490110" lon="35.1139620">
<ele>668.091064</ele>
<time>2015-06-26T05:22:53.999Z</time>
</trkpt>
<trkpt lat="31.7490950" lon="35.1137720">
<ele>666.506165</ele>
<time>2015-06-26T05:22:45.998Z</time>
</trkpt>
<trkpt lat="31.7498560" lon="35.1127540">
<ele>654.009338</ele>
<time>2015-06-26T05:21:27.996Z</time>
</trkpt>
<trkpt lat="31.7500640" lon="35.1123390">
<ele>647.486633</ele>
<time>2015-06-26T05:20:57.998Z</time>
</trkpt>
<trkpt lat="31.7500690" lon="35.1122600">
<ele>647.212280</ele>
<time>2015-06-26T05:20:52.002Z</time>
</trkpt>
<trkpt lat="31.7501770" lon="35.1120410">
<ele>643.402283</ele>
<time>2015-06-26T05:20:37.003Z</time>
</trkpt>
<trkpt lat="31.7502000" lon="35.1118830">
<ele>640.994385</ele>
<time>2015-06-26T05:20:29.003Z</time>
</trkpt>
<trkpt lat="31.7501540" lon="35.1114890">
<ele>637.885437</ele>
<time>2015-06-26T05:20:10.997Z</time>
</trkpt>
<trkpt lat="31.7499220" lon="35.1104260">
<ele>630.204529</ele>
<time>2015-06-26T05:19:24.004Z</time>
</trkpt>
<trkpt lat="31.7498750" lon="35.1094420">
<ele>620.298462</ele>
<time>2015-06-26T05:18:45.996Z</time>
</trkpt>
<trkpt lat="31.7497490" lon="35.1088610">
<ele>616.305603</ele>
<time>2015-06-26T05:18:30.997Z</time>
</trkpt>
<trkpt lat="31.7495530" lon="35.1081810">
<ele>613.714783</ele>
<time>2015-06-26T05:18:10.002Z</time>
</trkpt>
<trkpt lat="31.7492640" lon="35.1075790">
<ele>608.015076</ele>
<time>2015-06-26T05:17:46.000Z</time>
</trkpt>
<trkpt lat="31.7489590" lon="35.1067110">
<ele>604.387939</ele>
<time>2015-06-26T05:17:09.997Z</time>
</trkpt>
<trkpt lat="31.7488260" lon="35.1064570">
<ele>602.589600</ele>
<time>2015-06-26T05:16:57.996Z</time>
</trkpt>
<trkpt lat="31.7486070" lon="35.1058460">
<ele>604.387939</ele>
<time>2015-06-26T05:16:31.999Z</time>
</trkpt>
<trkpt lat="31.7482940" lon="35.1053840">
<ele>603.504028</ele>
<time>2015-06-26T05:16:10.001Z</time>
</trkpt>
<trkpt lat="31.7480390" lon="35.1051370">
<ele>599.998779</ele>
<time>2015-06-26T05:15:58.000Z</time>
</trkpt>
<trkpt lat="31.7479010" lon="35.1049290">
<ele>598.200500</ele>
<time>2015-06-26T05:15:50.000Z</time>
</trkpt>
<trkpt lat="31.7476150" lon="35.1046110">
<ele>592.988403</ele>
<time>2015-06-26T05:15:36.003Z</time>
</trkpt>
<trkpt lat="31.7475050" lon="35.1044170">
<ele>592.287354</ele>
<time>2015-06-26T05:15:28.996Z</time>
</trkpt>
<trkpt lat="31.7470420" lon="35.1033420">
<ele>593.689453</ele>
<time>2015-06-26T05:14:47.999Z</time>
</trkpt>
<trkpt lat="31.7466330" lon="35.1026330">
<ele>591.708252</ele>
<time>2015-06-26T05:14:24.999Z</time>
</trkpt>
<trkpt lat="31.7463590" lon="35.1020720">
<ele>590.793884</ele>
<time>2015-06-26T05:11:49.004Z</time>
</trkpt>
<trkpt lat="31.7462110" lon="35.1016840">
<ele>587.502014</ele>
<time>2015-06-26T05:11:30.998Z</time>
</trkpt>
<trkpt lat="31.7459780" lon="35.1012760">
<ele>579.790527</ele>
<time>2015-06-26T05:11:14.004Z</time>
</trkpt>
<trkpt lat="31.7458290" lon="35.1008840">
<ele>573.298340</ele>
<time>2015-06-26T05:10:55.998Z</time>
</trkpt>
<trkpt lat="31.7457850" lon="35.1006420">
<ele>571.286682</ele>
<time>2015-06-26T05:10:43.997Z</time>
</trkpt>
<trkpt lat="31.7458150" lon="35.1004490">
<ele>571.591431</ele>
<time>2015-06-26T05:10:34.000Z</time>
</trkpt>
<trkpt lat="31.7458800" lon="35.1003200">
<ele>572.505859</ele>
<time>2015-06-26T05:10:24.997Z</time>
</trkpt>
<trkpt lat="31.7461390" lon="35.1000250">
<ele>576.498718</ele>
<time>2015-06-26T05:10:01.004Z</time>
</trkpt>
<trkpt lat="31.7462775" lon="35.0998534">
<ele>578.114136</ele>
<time>2015-06-26T05:09:57.004Z</time>
</trkpt>
<trkpt lat="31.7464320" lon="35.0995890">
<ele>578.297058</ele>
<time>2015-06-26T05:09:34.998Z</time>
</trkpt>
<trkpt lat="31.7464320" lon="35.0993910">
<ele>576.894958</ele>
<time>2015-06-26T05:09:22.997Z</time>
</trkpt>
<trkpt lat="31.7463860" lon="35.0992630">
<ele>575.096680</ele>
<time>2015-06-26T05:09:14.003Z</time>
</trkpt>
<trkpt lat="31.7461060" lon="35.0987990">
<ele>565.403992</ele>
<time>2015-06-26T05:08:43.996Z</time>
</trkpt>
<trkpt lat="31.7460630" lon="35.0986470">
<ele>562.203613</ele>
<time>2015-06-26T05:08:36.004Z</time>
</trkpt>
<trkpt lat="31.7461290" lon="35.0980840">
<ele>554.400757</ele>
<time>2015-06-26T05:08:04.001Z</time>
</trkpt>
<trkpt lat="31.7462110" lon="35.0979000">
<ele>552.907227</ele>
<time>2015-06-26T05:07:52.000Z</time>
</trkpt>
<trkpt lat="31.7463080" lon="35.0978260">
<ele>553.211975</ele>
<time>2015-06-26T05:07:42.997Z</time>
</trkpt>
<trkpt lat="31.7465440" lon="35.0977450">
<ele>555.802795</ele>
<time>2015-06-26T05:07:25.000Z</time>
</trkpt>
<trkpt lat="31.7466800" lon="35.0977300">
<ele>557.997375</ele>
<time>2015-06-26T05:07:14.002Z</time>
</trkpt>
<trkpt lat="31.7471520" lon="35.0975900">
<ele>563.788574</ele>
<time>2015-06-26T05:06:40.997Z</time>
</trkpt>
<trkpt lat="31.7473740" lon="35.0974660">
<ele>563.392334</ele>
<time>2015-06-26T05:06:23.000Z</time>
</trkpt>
<trkpt lat="31.7475010" lon="35.0972390">
<ele>560.496704</ele>
<time>2015-06-26T05:05:57.002Z</time>
</trkpt>
<trkpt lat="31.7478030" lon="35.0970070">
<ele>556.686707</ele>
<time>2015-06-26T05:05:23.997Z</time>
</trkpt>
<trkpt lat="31.7480050" lon="35.0968240">
<ele>550.712646</ele>
<time>2015-06-26T05:05:00.997Z</time>
</trkpt>
<trkpt lat="31.7484310" lon="35.0964960">
<ele>542.208740</ele>
<time>2015-06-26T05:04:14.998Z</time>
</trkpt>
<trkpt lat="31.7487570" lon="35.0963620">
<ele>541.385742</ele>
<time>2015-06-26T05:03:38.002Z</time>
</trkpt>
<trkpt lat="31.7488200" lon="35.0962430">
<ele>538.794922</ele>
<time>2015-06-26T05:03:22.000Z</time>
</trkpt>
<trkpt lat="31.7488140" lon="35.0961370">
<ele>534.984924</ele>
<time>2015-06-26T05:03:08.004Z</time>
</trkpt>
<trkpt lat="31.7484830" lon="35.0956770">
<ele>514.197571</ele>
<time>2015-06-26T05:02:07.999Z</time>
</trkpt>
<trkpt lat="31.7482310" lon="35.0955380">
<ele>504.596405</ele>
<time>2015-06-26T05:01:46.001Z</time>
</trkpt>
<trkpt lat="31.7478600" lon="35.0956920">
<ele>505.602264</ele>
<time>2015-06-26T05:01:21.999Z</time>
</trkpt>
<trkpt lat="31.7475720" lon="35.0957570">
<ele>507.095734</ele>
<time>2015-06-26T05:01:11.001Z</time>
</trkpt>
<trkpt lat="31.7473460" lon="35.0957490">
<ele>505.785126</ele>
<time>2015-06-26T05:01:05.998Z</time>
</trkpt>
<trkpt lat="31.7471740" lon="35.0956990">
<ele>502.889526</ele>
<time>2015-06-26T05:01:03.000Z</time>
</trkpt>
<trkpt lat="31.7467440" lon="35.0957480">
<ele>504.596405</ele>
<time>2015-06-26T05:00:54.999Z</time>
</trkpt>
<trkpt lat="31.7465460" lon="35.0958730">
<ele>508.589264</ele>
<time>2015-06-26T05:00:50.999Z</time>
</trkpt>
<trkpt lat="31.7463000" lon="35.0962220">
<ele>517.702820</ele>
<time>2015-06-26T05:00:41.996Z</time>
</trkpt>
<trkpt lat="31.7461640" lon="35.0963340">
<ele>519.501099</ele>
<time>2015-06-26T05:00:34.998Z</time>
</trkpt>
<trkpt lat="31.7457640" lon="35.0963460">
<ele>517.794250</ele>
<time>2015-06-26T05:00:26.997Z</time>
</trkpt>
<trkpt lat="31.7455270" lon="35.0964900">
<ele>519.805908</ele>
<time>2015-06-26T05:00:22.997Z</time>
</trkpt>
<trkpt lat="31.7451580" lon="35.0970480">
<ele>527.212524</ele>
<time>2015-06-26T05:00:05.000Z</time>
</trkpt>
<trkpt lat="31.7449280" lon="35.0972620">
<ele>525.414246</ele>
<time>2015-06-26T04:59:05.004Z</time>
</trkpt>
<trkpt lat="31.7444590" lon="35.0974150">
<ele>519.104858</ele>
<time>2015-06-26T04:58:26.996Z</time>
</trkpt>
<trkpt lat="31.7440830" lon="35.0973590">
<ele>513.008850</ele>
<time>2015-06-26T04:56:38.003Z</time>
</trkpt>
<trkpt lat="31.7438390" lon="35.0971100">
<ele>507.613922</ele>
<time>2015-06-26T04:56:07.996Z</time>
</trkpt>
<trkpt lat="31.7435760" lon="35.0970430">
<ele>502.798065</ele>
<time>2015-06-26T04:55:44.996Z</time>
</trkpt>
<trkpt lat="31.7434870" lon="35.0969890">
<ele>500.694946</ele>
<time>2015-06-26T04:55:35.000Z</time>
</trkpt>
<trkpt lat="31.7432520" lon="35.0965230">
<ele>490.788940</ele>
<time>2015-06-26T04:55:01.001Z</time>
</trkpt>
<trkpt lat="31.7431880" lon="35.0964830">
<ele>489.295441</ele>
<time>2015-06-26T04:54:54.996Z</time>
</trkpt>
<trkpt lat="31.7428060" lon="35.0968900">
<ele>488.594391</ele>
<time>2015-06-26T04:54:12.004Z</time>
</trkpt>
<trkpt lat="31.7427380" lon="35.0969110">
<ele>487.801941</ele>
<time>2015-06-26T04:54:05.999Z</time>
</trkpt>
<trkpt lat="31.7426469" lon="35.0968869">
<ele>486.308411</ele>
<time>2015-06-26T04:54:01.999Z</time>
</trkpt>
<trkpt lat="31.7425600" lon="35.0966330">
<ele>482.010742</ele>
<time>2015-06-26T04:53:45.004Z</time>
</trkpt>
<trkpt lat="31.7425237" lon="35.0964631">
<ele>479.999054</ele>
<time>2015-06-26T04:53:33.996Z</time>
</trkpt>
<trkpt lat="31.7424670" lon="35.0961820">
<ele>476.707214</ele>
<time>2015-06-26T04:53:13.001Z</time>
</trkpt>
<trkpt lat="31.7424800" lon="35.0960340">
<ele>475.792786</ele>
<time>2015-06-26T04:53:02.996Z</time>
</trkpt>
<trkpt lat="31.7425480" lon="35.0958770">
<ele>475.091736</ele>
<time>2015-06-26T04:52:54.002Z</time>
</trkpt>
<trkpt lat="31.7426120" lon="35.0958170">
<ele>474.908875</ele>
<time>2015-06-26T04:52:50.002Z</time>
</trkpt>
<trkpt lat="31.7428630" lon="35.0956770">
<ele>474.299286</ele>
<time>2015-06-26T04:52:38.001Z</time>
</trkpt>
<trkpt lat="31.7431170" lon="35.0955920">
<ele>474.390717</ele>
<time>2015-06-26T04:52:26.000Z</time>
</trkpt>
<trkpt lat="31.7433200" lon="35.0954880">
<ele>473.384888</ele>
<time>2015-06-26T04:52:16.997Z</time>
</trkpt>
<trkpt lat="31.7435440" lon="35.0952630">
<ele>473.110535</ele>
<time>2015-06-26T04:52:01.004Z</time>
</trkpt>
<trkpt lat="31.7439850" lon="35.0949920">
<ele>474.604065</ele>
<time>2015-06-26T04:51:21.001Z</time>
</trkpt>
<trkpt lat="31.7440120" lon="35.0949220">
<ele>474.512665</ele>
<time>2015-06-26T04:51:14.996Z</time>
</trkpt>
<trkpt lat="31.7439660" lon="35.0947470">
<ele>474.299286</ele>
<time>2015-06-26T04:50:59.997Z</time>
</trkpt>
<trkpt lat="31.7439780" lon="35.0947050">
<ele>474.299286</ele>
<time>2015-06-26T04:50:56.999Z</time>
</trkpt>
<trkpt lat="31.7441040" lon="35.0943890">
<ele>478.901733</ele>
<time>2015-06-26T04:50:38.000Z</time>
</trkpt>
<trkpt lat="31.7441550" lon="35.0943320">
<ele>480.212402</ele>
<time>2015-06-26T04:50:36.004Z</time>
</trkpt>
<trkpt lat="31.7451310" lon="35.0939540">
<ele>482.589844</ele>
<time>2015-06-26T04:50:05.997Z</time>
</trkpt>
<trkpt lat="31.7452390" lon="35.0939310">
<ele>481.797333</ele>
<time>2015-06-26T04:50:02.999Z</time>
</trkpt>
<trkpt lat="31.7454540" lon="35.0939520">
<ele>479.298004</ele>
<time>2015-06-26T04:49:57.003Z</time>
</trkpt>
<trkpt lat="31.7457260" lon="35.0939330">
<ele>475.792786</ele>
<time>2015-06-26T04:49:46.004Z</time>
</trkpt>
<trkpt lat="31.7462100" lon="35.0936530">
<ele>468.294739</ele>
<time>2015-06-26T04:49:29.001Z</time>
</trkpt>
<trkpt lat="31.7464030" lon="35.0936440">
<ele>467.288879</ele>
<time>2015-06-26T04:49:23.998Z</time>
</trkpt>
<trkpt lat="31.7465670" lon="35.0937450">
<ele>466.313538</ele>
<time>2015-06-26T04:49:19.004Z</time>
</trkpt>
<trkpt lat="31.7466310" lon="35.0941610">
<ele>468.203278</ele>
<time>2015-06-26T04:49:10.001Z</time>
</trkpt>
<trkpt lat="31.7468220" lon="35.0944550">
<ele>467.685120</ele>
<time>2015-06-26T04:48:59.996Z</time>
</trkpt>
<trkpt lat="31.7470650" lon="35.0945910">
<ele>465.490540</ele>
<time>2015-06-26T04:48:54.000Z</time>
</trkpt>
<trkpt lat="31.7474060" lon="35.0946170">
<ele>465.703918</ele>
<time>2015-06-26T04:48:40.997Z</time>
</trkpt>
<trkpt lat="31.7476820" lon="35.0944950">
<ele>464.911469</ele>
<time>2015-06-26T04:48:24.002Z</time>
</trkpt>
<trkpt lat="31.7479780" lon="35.0941710">
<ele>468.294739</ele>
<time>2015-06-26T04:48:08.001Z</time>
</trkpt>
<trkpt lat="31.7483190" lon="35.0939490">
<ele>470.794067</ele>
<time>2015-06-26T04:48:00.000Z</time>
</trkpt>
<trkpt lat="31.7486350" lon="35.0938030">
<ele>471.190338</ele>
<time>2015-06-26T04:47:50.997Z</time>
</trkpt>
<trkpt lat="31.7490880" lon="35.0936620">
<ele>470.885529</ele>
<time>2015-06-26T04:47:34.002Z</time>
</trkpt>
<trkpt lat="31.7492490" lon="35.0936630">
<ele>470.001587</ele>
<time>2015-06-26T04:47:26.002Z</time>
</trkpt>
<trkpt lat="31.7500120" lon="35.0933820">
<ele>467.197449</ele>
<time>2015-06-26T04:46:52.997Z</time>
</trkpt>
<trkpt lat="31.7504090" lon="35.0933140">
<ele>462.198730</ele>
<time>2015-06-26T04:46:40.996Z</time>
</trkpt>
<trkpt lat="31.7508470" lon="35.0930560">
<ele>462.503540</ele>
<time>2015-06-26T04:46:25.997Z</time>
</trkpt>
<trkpt lat="31.7509430" lon="35.0928470">
<ele>461.101440</ele>
<time>2015-06-26T04:46:17.003Z</time>
</trkpt>
<trkpt lat="31.7509920" lon="35.0925740">
<ele>460.888062</ele>
<time>2015-06-26T04:46:10.004Z</time>
</trkpt>
<trkpt lat="31.7509740" lon="35.0921500">
<ele>461.010010</ele>
<time>2015-06-26T04:45:58.997Z</time>
</trkpt>
<trkpt lat="31.7506400" lon="35.0915450">
<ele>460.491852</ele>
<time>2015-06-26T04:45:35.997Z</time>
</trkpt>
<trkpt lat="31.7504940" lon="35.0903430">
<ele>452.810883</ele>
<time>2015-06-26T04:45:05.999Z</time>
</trkpt>
<trkpt lat="31.7505660" lon="35.0898610">
<ele>449.884796</ele>
<time>2015-06-26T04:44:52.996Z</time>
</trkpt>
<trkpt lat="31.7507860" lon="35.0896030">
<ele>449.793335</ele>
<time>2015-06-26T04:44:47.000Z</time>
</trkpt>
<trkpt lat="31.7508360" lon="35.0894570">
<ele>449.701935</ele>
<time>2015-06-26T04:44:42.999Z</time>
</trkpt>
<trkpt lat="31.7509160" lon="35.0889660">
<ele>449.397125</ele>
<time>2015-06-26T04:44:29.996Z</time>
</trkpt>
<trkpt lat="31.7508590" lon="35.0884590">
<ele>449.793335</ele>
<time>2015-06-26T04:44:14.997Z</time>
</trkpt>
<trkpt lat="31.7505020" lon="35.0879730">
<ele>444.794647</ele>
<time>2015-06-26T04:43:57.000Z</time>
</trkpt>
<trkpt lat="31.7502960" lon="35.0875820">
<ele>445.007996</ele>
<time>2015-06-26T04:43:43.003Z</time>
</trkpt>
<trkpt lat="31.7501020" lon="35.0871220">
<ele>445.495667</ele>
<time>2015-06-26T04:43:27.002Z</time>
</trkpt>
<trkpt lat="31.7499230" lon="35.0868590">
<ele>444.794647</ele>
<time>2015-06-26T04:43:21.999Z</time>
</trkpt>
<trkpt lat="31.7498210" lon="35.0866350">
<ele>444.794647</ele>
<time>2015-06-26T04:43:16.003Z</time>
</trkpt>
<trkpt lat="31.7497770" lon="35.0864010">
<ele>445.190887</ele>
<time>2015-06-26T04:43:08.996Z</time>
</trkpt>
<trkpt lat="31.7499380" lon="35.0860610">
<ele>448.909454</ele>
<time>2015-06-26T04:42:53.997Z</time>
</trkpt>
<trkpt lat="31.7502660" lon="35.0857490">
<ele>451.195465</ele>
<time>2015-06-26T04:42:25.001Z</time>
</trkpt>
<trkpt lat="31.7503780" lon="35.0855950">
<ele>451.591675</ele>
<time>2015-06-26T04:42:14.996Z</time>
</trkpt>
<trkpt lat="31.7504580" lon="35.0855890">
<ele>450.890656</ele>
<time>2015-06-26T04:42:11.998Z</time>
</trkpt>
<trkpt lat="31.7505960" lon="35.0854940">
<ele>450.707733</ele>
<time>2015-06-26T04:42:05.000Z</time>
</trkpt>
<trkpt lat="31.7507260" lon="35.0855880">
<ele>449.305664</ele>
<time>2015-06-26T04:42:02.002Z</time>
</trkpt>
<trkpt lat="31.7507890" lon="35.0855670">
<ele>449.000885</ele>
<time>2015-06-26T04:42:00.999Z</time>
</trkpt>
<trkpt lat="31.7509660" lon="35.0855830">
<ele>447.903595</ele>
<time>2015-06-26T04:41:58.001Z</time>
</trkpt>
<trkpt lat="31.7516870" lon="35.0856780">
<ele>449.000885</ele>
<time>2015-06-26T04:41:36.997Z</time>
</trkpt>
<trkpt lat="31.7520370" lon="35.0856300">
<ele>450.494385</ele>
<time>2015-06-26T04:41:20.996Z</time>
</trkpt>
<trkpt lat="31.7530680" lon="35.0856480">
<ele>451.195465</ele>
<time>2015-06-26T04:40:38.997Z</time>
</trkpt>
<trkpt lat="31.7533660" lon="35.0858290">
<ele>451.012543</ele>
<time>2015-06-26T04:40:26.996Z</time>
</trkpt>
<trkpt lat="31.7534820" lon="35.0859860">
<ele>448.299866</ele>
<time>2015-06-26T04:40:22.002Z</time>
</trkpt>
<trkpt lat="31.7535520" lon="35.0862160">
<ele>442.996338</ele>
<time>2015-06-26T04:40:17.000Z</time>
</trkpt>
<trkpt lat="31.7537510" lon="35.0870090">
<ele>447.385468</ele>
<time>2015-06-26T04:39:56.998Z</time>
</trkpt>
<trkpt lat="31.7538310" lon="35.0875480">
<ele>453.786255</ele>
<time>2015-06-26T04:39:43.001Z</time>
</trkpt>
<trkpt lat="31.7539010" lon="35.0878200">
<ele>455.615051</ele>
<time>2015-06-26T04:39:36.003Z</time>
</trkpt>
<trkpt lat="31.7540220" lon="35.0881190">
<ele>458.510651</ele>
<time>2015-06-26T04:39:28.996Z</time>
</trkpt>
<trkpt lat="31.7544210" lon="35.0885900">
<ele>451.591675</ele>
<time>2015-06-26T04:39:16.001Z</time>
</trkpt>
<trkpt lat="31.7548170" lon="35.0888990">
<ele>448.513214</ele>
<time>2015-06-26T04:39:00.000Z</time>
</trkpt>
<trkpt lat="31.7553370" lon="35.0890430">
<ele>443.788788</ele>
<time>2015-06-26T04:38:46.003Z</time>
</trkpt>
<trkpt lat="31.7556800" lon="35.0889830">
<ele>443.301117</ele>
<time>2015-06-26T04:38:34.996Z</time>
</trkpt>
<trkpt lat="31.7557420" lon="35.0889970">
<ele>443.514465</ele>
<time>2015-06-26T04:38:33.000Z</time>
</trkpt>
<trkpt lat="31.7562770" lon="35.0894650">
<ele>436.900330</ele>
<time>2015-06-26T04:38:14.001Z</time>
</trkpt>
<trkpt lat="31.7567730" lon="35.0896640">
<ele>433.090332</ele>
<time>2015-06-26T04:37:52.003Z</time>
</trkpt>
<trkpt lat="31.7571050" lon="35.0896440">
<ele>429.493683</ele>
<time>2015-06-26T04:37:40.002Z</time>
</trkpt>
<trkpt lat="31.7572290" lon="35.0896010">
<ele>428.091614</ele>
<time>2015-06-26T04:37:33.997Z</time>
</trkpt>
<trkpt lat="31.7575330" lon="35.0893660">
<ele>429.188873</ele>
<time>2015-06-26T04:37:24.001Z</time>
</trkpt>
<trkpt lat="31.7580210" lon="35.0892710">
<ele>425.592255</ele>
<time>2015-06-26T04:37:16.000Z</time>
</trkpt>
<trkpt lat="31.7581200" lon="35.0893600">
<ele>424.891205</ele>
<time>2015-06-26T04:36:08.997Z</time>
</trkpt>
<trkpt lat="31.7581260" lon="35.0895410">
<ele>424.799744</ele>
<time>2015-06-26T04:36:03.001Z</time>
</trkpt>
<trkpt lat="31.7582770" lon="35.0896190">
<ele>424.190155</ele>
<time>2015-06-26T04:28:06.004Z</time>
</trkpt>
<trkpt lat="31.7582500" lon="35.0896030">
<ele>424.190155</ele>
<time>2015-06-26T04:28:02.004Z</time>
</trkpt>
<trkpt lat="31.7582720" lon="35.0895410">
<ele>423.885345</ele>
<time>2015-06-26T04:26:05.001Z</time>
</trkpt>
<trkpt lat="31.7582540" lon="35.0896300">
<ele>424.403534</ele>
<time>2015-06-26T04:24:57.997Z</time>
</trkpt>
<trkpt lat="31.7581670" lon="35.0895320">
<ele>424.494934</ele>
<time>2015-06-26T04:11:58.998Z</time>
</trkpt>
<trkpt lat="31.7582250" lon="35.0894060">
<ele>424.098724</ele>
<time>2015-06-26T04:11:57.002Z</time>
</trkpt>
<trkpt lat="31.7582220" lon="35.0892850">
<ele>424.098724</ele>
<time>2015-06-26T04:11:56.000Z</time>
</trkpt>
<trkpt lat="31.7581850" lon="35.0893930">
<ele>424.403534</ele>
<time>2015-06-26T04:11:54.997Z</time>
</trkpt>
<trkpt lat="31.7582110" lon="35.0894110">
<ele>424.190155</ele>
<time>2015-06-26T04:11:54.004Z</time>
</trkpt>
<trkpt lat="31.7581590" lon="35.0894250">
<ele>424.586395</ele>
<time>2015-06-26T04:11:53.002Z</time>
</trkpt>
</trkseg>
</trk>
</gpx>
